<?xml version="1.0" encoding="UTF-8" standalone="no" ?>
<gpx xmlns="http://www.topografix.com/GPX/1/1" xmlns:xsi="http://www.w3.org/2001/XMLSchema-instance" xsi:schemaLocation="http://www.topografix.com/GPX/1/1 http://www.topografix.com/GPX/1/1/gpx.xsd" version="1.1" creator="VisuGPX - https://www.visugpx.com">
  <metadata>
    <name>Merdanel</name>
    <desc><![CDATA[circuit Guillestrois No 4]]></desc>
  </metadata>
  <trk>
    <name><![CDATA[110808-Merdanel]]></name>
    <trkseg>
      <trkpt lat="44.6612" lon="6.62818">
        <ele>923</ele>
        <time>2011-08-08T10:22:48Z</time>
      </trkpt>
      <trkpt lat="44.66135" lon="6.62805">
        <ele>923</ele>
        <time>2011-08-08T10:23:04Z</time>
      </trkpt>
      <trkpt lat="44.6614" lon="6.62798">
        <ele>922</ele>
        <time>2011-08-08T10:23:06Z</time>
      </trkpt>
      <trkpt lat="44.66157" lon="6.62787">
        <ele>922</ele>
        <time>2011-08-08T10:23:29Z</time>
      </trkpt>
      <trkpt lat="44.66167" lon="6.62773">
        <ele>920</ele>
        <time>2011-08-08T10:23:33Z</time>
      </trkpt>
      <trkpt lat="44.6618" lon="6.62762">
        <ele>920</ele>
        <time>2011-08-08T10:23:37Z</time>
      </trkpt>
      <trkpt lat="44.66192" lon="6.62748">
        <ele>919</ele>
        <time>2011-08-08T10:23:42Z</time>
      </trkpt>
      <trkpt lat="44.6621" lon="6.62732">
        <ele>918</ele>
        <time>2011-08-08T10:23:46Z</time>
      </trkpt>
      <trkpt lat="44.66227" lon="6.62722">
        <ele>917</ele>
        <time>2011-08-08T10:23:51Z</time>
      </trkpt>
      <trkpt lat="44.66255" lon="6.6271">
        <ele>916</ele>
        <time>2011-08-08T10:23:57Z</time>
      </trkpt>
      <trkpt lat="44.66285" lon="6.62698">
        <ele>916</ele>
        <time>2011-08-08T10:24:01Z</time>
      </trkpt>
      <trkpt lat="44.6631" lon="6.62688">
        <ele>915</ele>
        <time>2011-08-08T10:24:05Z</time>
      </trkpt>
      <trkpt lat="44.66333" lon="6.62675">
        <ele>913</ele>
        <time>2011-08-08T10:24:10Z</time>
      </trkpt>
      <trkpt lat="44.66353" lon="6.62652">
        <ele>910</ele>
        <time>2011-08-08T10:24:14Z</time>
      </trkpt>
      <trkpt lat="44.66363" lon="6.62638">
        <ele>908</ele>
        <time>2011-08-08T10:24:16Z</time>
      </trkpt>
      <trkpt lat="44.66372" lon="6.62607">
        <ele>904</ele>
        <time>2011-08-08T10:24:20Z</time>
      </trkpt>
      <trkpt lat="44.66377" lon="6.62585">
        <ele>901</ele>
        <time>2011-08-08T10:24:26Z</time>
      </trkpt>
      <trkpt lat="44.66387" lon="6.62567">
        <ele>899</ele>
        <time>2011-08-08T10:24:33Z</time>
      </trkpt>
      <trkpt lat="44.66395" lon="6.62548">
        <ele>897</ele>
        <time>2011-08-08T10:24:37Z</time>
      </trkpt>
      <trkpt lat="44.66402" lon="6.62532">
        <ele>897</ele>
        <time>2011-08-08T10:24:41Z</time>
      </trkpt>
      <trkpt lat="44.6641" lon="6.62513">
        <ele>906</ele>
        <time>2011-08-08T10:24:46Z</time>
      </trkpt>
      <trkpt lat="44.66415" lon="6.62492">
        <ele>917</ele>
        <time>2011-08-08T10:24:52Z</time>
      </trkpt>
      <trkpt lat="44.66408" lon="6.62475">
        <ele>916</ele>
        <time>2011-08-08T10:24:58Z</time>
      </trkpt>
      <trkpt lat="44.6639" lon="6.62458">
        <ele>909</ele>
        <time>2011-08-08T10:25:06Z</time>
      </trkpt>
      <trkpt lat="44.6638" lon="6.62435">
        <ele>907</ele>
        <time>2011-08-08T10:25:11Z</time>
      </trkpt>
      <trkpt lat="44.66377" lon="6.62412">
        <ele>908</ele>
        <time>2011-08-08T10:25:15Z</time>
      </trkpt>
      <trkpt lat="44.66377" lon="6.62392">
        <ele>907</ele>
        <time>2011-08-08T10:25:17Z</time>
      </trkpt>
      <trkpt lat="44.66383" lon="6.62363">
        <ele>906</ele>
        <time>2011-08-08T10:25:21Z</time>
      </trkpt>
      <trkpt lat="44.66392" lon="6.62337">
        <ele>904</ele>
        <time>2011-08-08T10:25:26Z</time>
      </trkpt>
      <trkpt lat="44.66402" lon="6.6231">
        <ele>902</ele>
        <time>2011-08-08T10:25:30Z</time>
      </trkpt>
      <trkpt lat="44.6642" lon="6.62263">
        <ele>898</ele>
        <time>2011-08-08T10:25:36Z</time>
      </trkpt>
      <trkpt lat="44.66427" lon="6.62238">
        <ele>896</ele>
        <time>2011-08-08T10:25:38Z</time>
      </trkpt>
      <trkpt lat="44.66433" lon="6.62222">
        <ele>894</ele>
        <time>2011-08-08T10:25:40Z</time>
      </trkpt>
      <trkpt lat="44.66438" lon="6.62203">
        <ele>894</ele>
        <time>2011-08-08T10:25:42Z</time>
      </trkpt>
      <trkpt lat="44.6646" lon="6.6213">
        <ele>891</ele>
        <time>2011-08-08T10:25:52Z</time>
      </trkpt>
      <trkpt lat="44.66473" lon="6.6211">
        <ele>893</ele>
        <time>2011-08-08T10:25:56Z</time>
      </trkpt>
      <trkpt lat="44.66488" lon="6.62092">
        <ele>893</ele>
        <time>2011-08-08T10:26:01Z</time>
      </trkpt>
      <trkpt lat="44.66513" lon="6.6207">
        <ele>895</ele>
        <time>2011-08-08T10:26:05Z</time>
      </trkpt>
      <trkpt lat="44.66533" lon="6.6205">
        <ele>897</ele>
        <time>2011-08-08T10:26:09Z</time>
      </trkpt>
      <trkpt lat="44.66585" lon="6.62">
        <ele>900</ele>
        <time>2011-08-08T10:26:20Z</time>
      </trkpt>
      <trkpt lat="44.6661" lon="6.61985">
        <ele>900</ele>
        <time>2011-08-08T10:26:24Z</time>
      </trkpt>
      <trkpt lat="44.66625" lon="6.61973">
        <ele>899</ele>
        <time>2011-08-08T10:26:26Z</time>
      </trkpt>
      <trkpt lat="44.66647" lon="6.6196">
        <ele>899</ele>
        <time>2011-08-08T10:26:30Z</time>
      </trkpt>
      <trkpt lat="44.66682" lon="6.61942">
        <ele>900</ele>
        <time>2011-08-08T10:26:37Z</time>
      </trkpt>
      <trkpt lat="44.66705" lon="6.61933">
        <ele>900</ele>
        <time>2011-08-08T10:26:41Z</time>
      </trkpt>
      <trkpt lat="44.66725" lon="6.61923">
        <ele>899</ele>
        <time>2011-08-08T10:26:45Z</time>
      </trkpt>
      <trkpt lat="44.66738" lon="6.61917">
        <ele>899</ele>
        <time>2011-08-08T10:26:49Z</time>
      </trkpt>
      <trkpt lat="44.66755" lon="6.61913">
        <ele>899</ele>
        <time>2011-08-08T10:26:51Z</time>
      </trkpt>
      <trkpt lat="44.66775" lon="6.6191">
        <ele>899</ele>
        <time>2011-08-08T10:26:55Z</time>
      </trkpt>
      <trkpt lat="44.66795" lon="6.61903">
        <ele>899</ele>
        <time>2011-08-08T10:26:59Z</time>
      </trkpt>
      <trkpt lat="44.66892" lon="6.61882">
        <ele>900</ele>
        <time>2011-08-08T10:27:16Z</time>
      </trkpt>
      <trkpt lat="44.66908" lon="6.6189">
        <ele>902</ele>
        <time>2011-08-08T10:27:20Z</time>
      </trkpt>
      <trkpt lat="44.66922" lon="6.61887">
        <ele>901</ele>
        <time>2011-08-08T10:27:29Z</time>
      </trkpt>
      <trkpt lat="44.66938" lon="6.61887">
        <ele>901</ele>
        <time>2011-08-08T10:27:41Z</time>
      </trkpt>
      <trkpt lat="44.66952" lon="6.61883">
        <ele>900</ele>
        <time>2011-08-08T10:27:46Z</time>
      </trkpt>
      <trkpt lat="44.66977" lon="6.6188">
        <ele>899</ele>
        <time>2011-08-08T10:27:52Z</time>
      </trkpt>
      <trkpt lat="44.66992" lon="6.61887">
        <ele>900</ele>
        <time>2011-08-08T10:27:56Z</time>
      </trkpt>
      <trkpt lat="44.67005" lon="6.61897">
        <ele>903</ele>
        <time>2011-08-08T10:28:00Z</time>
      </trkpt>
      <trkpt lat="44.67023" lon="6.61905">
        <ele>905</ele>
        <time>2011-08-08T10:28:04Z</time>
      </trkpt>
      <trkpt lat="44.67042" lon="6.6191">
        <ele>906</ele>
        <time>2011-08-08T10:28:08Z</time>
      </trkpt>
      <trkpt lat="44.67057" lon="6.6191">
        <ele>905</ele>
        <time>2011-08-08T10:28:12Z</time>
      </trkpt>
      <trkpt lat="44.67072" lon="6.61917">
        <ele>906</ele>
        <time>2011-08-08T10:28:16Z</time>
      </trkpt>
      <trkpt lat="44.67085" lon="6.61922">
        <ele>907</ele>
        <time>2011-08-08T10:28:21Z</time>
      </trkpt>
      <trkpt lat="44.67098" lon="6.61928">
        <ele>908</ele>
        <time>2011-08-08T10:28:27Z</time>
      </trkpt>
      <trkpt lat="44.67113" lon="6.61945">
        <ele>908</ele>
        <time>2011-08-08T10:28:31Z</time>
      </trkpt>
      <trkpt lat="44.67128" lon="6.61953">
        <ele>905</ele>
        <time>2011-08-08T10:28:37Z</time>
      </trkpt>
      <trkpt lat="44.67145" lon="6.61967">
        <ele>903</ele>
        <time>2011-08-08T10:28:44Z</time>
      </trkpt>
      <trkpt lat="44.67168" lon="6.61995">
        <ele>905</ele>
        <time>2011-08-08T10:28:48Z</time>
      </trkpt>
      <trkpt lat="44.67182" lon="6.62005">
        <ele>905</ele>
        <time>2011-08-08T10:28:57Z</time>
      </trkpt>
      <trkpt lat="44.67197" lon="6.62015">
        <ele>905</ele>
        <time>2011-08-08T10:29:05Z</time>
      </trkpt>
      <trkpt lat="44.67217" lon="6.62023">
        <ele>903</ele>
        <time>2011-08-08T10:29:15Z</time>
      </trkpt>
      <trkpt lat="44.6723" lon="6.62033">
        <ele>903</ele>
        <time>2011-08-08T10:29:21Z</time>
      </trkpt>
      <trkpt lat="44.6725" lon="6.62045">
        <ele>904</ele>
        <time>2011-08-08T10:29:32Z</time>
      </trkpt>
      <trkpt lat="44.67265" lon="6.62057">
        <ele>905</ele>
        <time>2011-08-08T10:29:38Z</time>
      </trkpt>
      <trkpt lat="44.67292" lon="6.62075">
        <ele>906</ele>
        <time>2011-08-08T10:29:50Z</time>
      </trkpt>
      <trkpt lat="44.673" lon="6.62093">
        <ele>908</ele>
        <time>2011-08-08T10:29:58Z</time>
      </trkpt>
      <trkpt lat="44.6732" lon="6.62135">
        <ele>914</ele>
        <time>2011-08-08T10:30:15Z</time>
      </trkpt>
      <trkpt lat="44.67333" lon="6.62153">
        <ele>916</ele>
        <time>2011-08-08T10:30:21Z</time>
      </trkpt>
      <trkpt lat="44.67347" lon="6.62163">
        <ele>916</ele>
        <time>2011-08-08T10:30:29Z</time>
      </trkpt>
      <trkpt lat="44.67362" lon="6.6217">
        <ele>916</ele>
        <time>2011-08-08T10:30:40Z</time>
      </trkpt>
      <trkpt lat="44.67373" lon="6.6218">
        <ele>917</ele>
        <time>2011-08-08T10:30:46Z</time>
      </trkpt>
      <trkpt lat="44.67387" lon="6.6219">
        <ele>918</ele>
        <time>2011-08-08T10:30:54Z</time>
      </trkpt>
      <trkpt lat="44.67397" lon="6.62208">
        <ele>920</ele>
        <time>2011-08-08T10:31:03Z</time>
      </trkpt>
      <trkpt lat="44.67405" lon="6.62225">
        <ele>923</ele>
        <time>2011-08-08T10:31:09Z</time>
      </trkpt>
      <trkpt lat="44.67405" lon="6.62245">
        <ele>927</ele>
        <time>2011-08-08T10:31:19Z</time>
      </trkpt>
      <trkpt lat="44.6739" lon="6.6224">
        <ele>928</ele>
        <time>2011-08-08T10:31:28Z</time>
      </trkpt>
      <trkpt lat="44.67373" lon="6.62238">
        <ele>929</ele>
        <time>2011-08-08T10:31:36Z</time>
      </trkpt>
      <trkpt lat="44.67378" lon="6.62257">
        <ele>934</ele>
        <time>2011-08-08T10:31:42Z</time>
      </trkpt>
      <trkpt lat="44.67393" lon="6.62265">
        <ele>934</ele>
        <time>2011-08-08T10:31:50Z</time>
      </trkpt>
      <trkpt lat="44.67408" lon="6.62277">
        <ele>935</ele>
        <time>2011-08-08T10:31:59Z</time>
      </trkpt>
      <trkpt lat="44.67423" lon="6.62287">
        <ele>935</ele>
        <time>2011-08-08T10:32:07Z</time>
      </trkpt>
      <trkpt lat="44.67438" lon="6.62297">
        <ele>935</ele>
        <time>2011-08-08T10:32:15Z</time>
      </trkpt>
      <trkpt lat="44.67448" lon="6.6231">
        <ele>937</ele>
        <time>2011-08-08T10:32:23Z</time>
      </trkpt>
      <trkpt lat="44.6746" lon="6.62325">
        <ele>938</ele>
        <time>2011-08-08T10:32:31Z</time>
      </trkpt>
      <trkpt lat="44.67478" lon="6.62347">
        <ele>940</ele>
        <time>2011-08-08T10:32:44Z</time>
      </trkpt>
      <trkpt lat="44.6749" lon="6.62357">
        <ele>940</ele>
        <time>2011-08-08T10:32:52Z</time>
      </trkpt>
      <trkpt lat="44.67505" lon="6.62367">
        <ele>940</ele>
        <time>2011-08-08T10:33:00Z</time>
      </trkpt>
      <trkpt lat="44.67538" lon="6.62392">
        <ele>940</ele>
        <time>2011-08-08T10:33:21Z</time>
      </trkpt>
      <trkpt lat="44.67552" lon="6.62403">
        <ele>941</ele>
        <time>2011-08-08T10:33:29Z</time>
      </trkpt>
      <trkpt lat="44.67565" lon="6.62413">
        <ele>941</ele>
        <time>2011-08-08T10:33:37Z</time>
      </trkpt>
      <trkpt lat="44.67577" lon="6.62423">
        <ele>942</ele>
        <time>2011-08-08T10:33:45Z</time>
      </trkpt>
      <trkpt lat="44.67595" lon="6.62438">
        <ele>943</ele>
        <time>2011-08-08T10:33:55Z</time>
      </trkpt>
      <trkpt lat="44.67608" lon="6.6245">
        <ele>944</ele>
        <time>2011-08-08T10:34:04Z</time>
      </trkpt>
      <trkpt lat="44.67617" lon="6.62472">
        <ele>946</ele>
        <time>2011-08-08T10:34:12Z</time>
      </trkpt>
      <trkpt lat="44.67625" lon="6.62495">
        <ele>947</ele>
        <time>2011-08-08T10:34:20Z</time>
      </trkpt>
      <trkpt lat="44.67632" lon="6.62513">
        <ele>948</ele>
        <time>2011-08-08T10:34:28Z</time>
      </trkpt>
      <trkpt lat="44.67637" lon="6.62535">
        <ele>949</ele>
        <time>2011-08-08T10:34:39Z</time>
      </trkpt>
      <trkpt lat="44.67635" lon="6.6256">
        <ele>951</ele>
        <time>2011-08-08T10:34:47Z</time>
      </trkpt>
      <trkpt lat="44.67635" lon="6.6258">
        <ele>953</ele>
        <time>2011-08-08T10:34:53Z</time>
      </trkpt>
      <trkpt lat="44.67637" lon="6.62602">
        <ele>955</ele>
        <time>2011-08-08T10:34:59Z</time>
      </trkpt>
      <trkpt lat="44.67638" lon="6.62622">
        <ele>957</ele>
        <time>2011-08-08T10:35:05Z</time>
      </trkpt>
      <trkpt lat="44.67645" lon="6.62638">
        <ele>958</ele>
        <time>2011-08-08T10:35:11Z</time>
      </trkpt>
      <trkpt lat="44.67652" lon="6.62655">
        <ele>959</ele>
        <time>2011-08-08T10:35:17Z</time>
      </trkpt>
      <trkpt lat="44.67662" lon="6.62673">
        <ele>959</ele>
        <time>2011-08-08T10:35:26Z</time>
      </trkpt>
      <trkpt lat="44.6767" lon="6.62692">
        <ele>960</ele>
        <time>2011-08-08T10:35:32Z</time>
      </trkpt>
      <trkpt lat="44.67675" lon="6.62712">
        <ele>963</ele>
        <time>2011-08-08T10:35:38Z</time>
      </trkpt>
      <trkpt lat="44.67682" lon="6.62728">
        <ele>964</ele>
        <time>2011-08-08T10:35:45Z</time>
      </trkpt>
      <trkpt lat="44.67692" lon="6.62748">
        <ele>965</ele>
        <time>2011-08-08T10:35:51Z</time>
      </trkpt>
      <trkpt lat="44.67702" lon="6.62763">
        <ele>966</ele>
        <time>2011-08-08T10:35:58Z</time>
      </trkpt>
      <trkpt lat="44.6771" lon="6.62778">
        <ele>967</ele>
        <time>2011-08-08T10:36:04Z</time>
      </trkpt>
      <trkpt lat="44.67723" lon="6.62802">
        <ele>969</ele>
        <time>2011-08-08T10:36:12Z</time>
      </trkpt>
      <trkpt lat="44.6773" lon="6.62818">
        <ele>970</ele>
        <time>2011-08-08T10:36:18Z</time>
      </trkpt>
      <trkpt lat="44.67738" lon="6.62835">
        <ele>971</ele>
        <time>2011-08-08T10:36:24Z</time>
      </trkpt>
      <trkpt lat="44.6775" lon="6.6286">
        <ele>971</ele>
        <time>2011-08-08T10:36:35Z</time>
      </trkpt>
      <trkpt lat="44.67762" lon="6.62878">
        <ele>970</ele>
        <time>2011-08-08T10:36:43Z</time>
      </trkpt>
      <trkpt lat="44.67775" lon="6.62895">
        <ele>968</ele>
        <time>2011-08-08T10:36:52Z</time>
      </trkpt>
      <trkpt lat="44.6779" lon="6.6291">
        <ele>966</ele>
        <time>2011-08-08T10:37:00Z</time>
      </trkpt>
      <trkpt lat="44.678" lon="6.6293">
        <ele>966</ele>
        <time>2011-08-08T10:37:09Z</time>
      </trkpt>
      <trkpt lat="44.6779" lon="6.62945">
        <ele>969</ele>
        <time>2011-08-08T10:37:15Z</time>
      </trkpt>
      <trkpt lat="44.67775" lon="6.62938">
        <ele>972</ele>
        <time>2011-08-08T10:37:23Z</time>
      </trkpt>
      <trkpt lat="44.6776" lon="6.62928">
        <ele>976</ele>
        <time>2011-08-08T10:37:32Z</time>
      </trkpt>
      <trkpt lat="44.67747" lon="6.6292">
        <ele>979</ele>
        <time>2011-08-08T10:37:38Z</time>
      </trkpt>
      <trkpt lat="44.67732" lon="6.62908">
        <ele>981</ele>
        <time>2011-08-08T10:37:46Z</time>
      </trkpt>
      <trkpt lat="44.67693" lon="6.6288">
        <ele>987</ele>
        <time>2011-08-08T10:38:06Z</time>
      </trkpt>
      <trkpt lat="44.6767" lon="6.62863">
        <ele>988</ele>
        <time>2011-08-08T10:38:16Z</time>
      </trkpt>
      <trkpt lat="44.67657" lon="6.62855">
        <ele>990</ele>
        <time>2011-08-08T10:38:23Z</time>
      </trkpt>
      <trkpt lat="44.67643" lon="6.62852">
        <ele>991</ele>
        <time>2011-08-08T10:38:29Z</time>
      </trkpt>
      <trkpt lat="44.67623" lon="6.62847">
        <ele>993</ele>
        <time>2011-08-08T10:38:37Z</time>
      </trkpt>
      <trkpt lat="44.67608" lon="6.62833">
        <ele>994</ele>
        <time>2011-08-08T10:38:45Z</time>
      </trkpt>
      <trkpt lat="44.67597" lon="6.62813">
        <ele>993</ele>
        <time>2011-08-08T10:38:54Z</time>
      </trkpt>
      <trkpt lat="44.67587" lon="6.62798">
        <ele>993</ele>
        <time>2011-08-08T10:39:00Z</time>
      </trkpt>
      <trkpt lat="44.67573" lon="6.62783">
        <ele>994</ele>
        <time>2011-08-08T10:39:06Z</time>
      </trkpt>
      <trkpt lat="44.67562" lon="6.62773">
        <ele>995</ele>
        <time>2011-08-08T10:39:12Z</time>
      </trkpt>
      <trkpt lat="44.67548" lon="6.62763">
        <ele>996</ele>
        <time>2011-08-08T10:39:19Z</time>
      </trkpt>
      <trkpt lat="44.67535" lon="6.62755">
        <ele>998</ele>
        <time>2011-08-08T10:39:25Z</time>
      </trkpt>
      <trkpt lat="44.6752" lon="6.62747">
        <ele>1000</ele>
        <time>2011-08-08T10:39:34Z</time>
      </trkpt>
      <trkpt lat="44.675" lon="6.62738">
        <ele>1001</ele>
        <time>2011-08-08T10:39:42Z</time>
      </trkpt>
      <trkpt lat="44.67485" lon="6.6273">
        <ele>1002</ele>
        <time>2011-08-08T10:39:51Z</time>
      </trkpt>
      <trkpt lat="44.67472" lon="6.62727">
        <ele>1003</ele>
        <time>2011-08-08T10:39:57Z</time>
      </trkpt>
      <trkpt lat="44.67458" lon="6.62737">
        <ele>1005</ele>
        <time>2011-08-08T10:40:03Z</time>
      </trkpt>
      <trkpt lat="44.67445" lon="6.6275">
        <ele>1007</ele>
        <time>2011-08-08T10:40:11Z</time>
      </trkpt>
      <trkpt lat="44.67432" lon="6.62765">
        <ele>1009</ele>
        <time>2011-08-08T10:40:20Z</time>
      </trkpt>
      <trkpt lat="44.67412" lon="6.62787">
        <ele>1011</ele>
        <time>2011-08-08T10:40:30Z</time>
      </trkpt>
      <trkpt lat="44.67398" lon="6.62803">
        <ele>1012</ele>
        <time>2011-08-08T10:40:38Z</time>
      </trkpt>
      <trkpt lat="44.67392" lon="6.6282">
        <ele>1013</ele>
        <time>2011-08-08T10:40:44Z</time>
      </trkpt>
      <trkpt lat="44.67385" lon="6.62837">
        <ele>1013</ele>
        <time>2011-08-08T10:40:51Z</time>
      </trkpt>
      <trkpt lat="44.6738" lon="6.62857">
        <ele>1014</ele>
        <time>2011-08-08T10:40:57Z</time>
      </trkpt>
      <trkpt lat="44.67378" lon="6.62878">
        <ele>1015</ele>
        <time>2011-08-08T10:41:03Z</time>
      </trkpt>
      <trkpt lat="44.67375" lon="6.62898">
        <ele>1015</ele>
        <time>2011-08-08T10:41:37Z</time>
      </trkpt>
      <trkpt lat="44.67375" lon="6.6292">
        <ele>1016</ele>
        <time>2011-08-08T10:41:46Z</time>
      </trkpt>
      <trkpt lat="44.67378" lon="6.6294">
        <ele>1016</ele>
        <time>2011-08-08T10:41:52Z</time>
      </trkpt>
      <trkpt lat="44.6738" lon="6.62965">
        <ele>1017</ele>
        <time>2011-08-08T10:42:00Z</time>
      </trkpt>
      <trkpt lat="44.67382" lon="6.62993">
        <ele>1017</ele>
        <time>2011-08-08T10:42:09Z</time>
      </trkpt>
      <trkpt lat="44.67383" lon="6.63013">
        <ele>1018</ele>
        <time>2011-08-08T10:42:15Z</time>
      </trkpt>
      <trkpt lat="44.6739" lon="6.6308">
        <ele>1021</ele>
        <time>2011-08-08T10:42:35Z</time>
      </trkpt>
      <trkpt lat="44.67388" lon="6.63103">
        <ele>1023</ele>
        <time>2011-08-08T10:42:41Z</time>
      </trkpt>
      <trkpt lat="44.67387" lon="6.63125">
        <ele>1024</ele>
        <time>2011-08-08T10:42:48Z</time>
      </trkpt>
      <trkpt lat="44.67387" lon="6.63148">
        <ele>1025</ele>
        <time>2011-08-08T10:42:54Z</time>
      </trkpt>
      <trkpt lat="44.6739" lon="6.63168">
        <ele>1025</ele>
        <time>2011-08-08T10:42:58Z</time>
      </trkpt>
      <trkpt lat="44.67393" lon="6.63188">
        <ele>1024</ele>
        <time>2011-08-08T10:43:02Z</time>
      </trkpt>
      <trkpt lat="44.67402" lon="6.63208">
        <ele>1022</ele>
        <time>2011-08-08T10:43:06Z</time>
      </trkpt>
      <trkpt lat="44.67415" lon="6.6323">
        <ele>1021</ele>
        <time>2011-08-08T10:43:11Z</time>
      </trkpt>
      <trkpt lat="44.67435" lon="6.63245">
        <ele>1022</ele>
        <time>2011-08-08T10:43:15Z</time>
      </trkpt>
      <trkpt lat="44.67452" lon="6.63253">
        <ele>1023</ele>
        <time>2011-08-08T10:43:17Z</time>
      </trkpt>
      <trkpt lat="44.67472" lon="6.63267">
        <ele>1022</ele>
        <time>2011-08-08T10:43:21Z</time>
      </trkpt>
      <trkpt lat="44.6749" lon="6.63285">
        <ele>1023</ele>
        <time>2011-08-08T10:43:25Z</time>
      </trkpt>
      <trkpt lat="44.67532" lon="6.63328">
        <ele>1024</ele>
        <time>2011-08-08T10:43:36Z</time>
      </trkpt>
      <trkpt lat="44.6756" lon="6.63358">
        <ele>1024</ele>
        <time>2011-08-08T10:43:44Z</time>
      </trkpt>
      <trkpt lat="44.67575" lon="6.63377">
        <ele>1027</ele>
        <time>2011-08-08T10:43:48Z</time>
      </trkpt>
      <trkpt lat="44.67585" lon="6.63392">
        <ele>1027</ele>
        <time>2011-08-08T10:43:55Z</time>
      </trkpt>
      <trkpt lat="44.67602" lon="6.63402">
        <ele>1027</ele>
        <time>2011-08-08T10:45:34Z</time>
      </trkpt>
      <trkpt lat="44.67615" lon="6.63405">
        <ele>1028</ele>
        <time>2011-08-08T10:45:40Z</time>
      </trkpt>
      <trkpt lat="44.67628" lon="6.63412">
        <ele>1029</ele>
        <time>2011-08-08T10:45:47Z</time>
      </trkpt>
      <trkpt lat="44.67645" lon="6.63425">
        <ele>1030</ele>
        <time>2011-08-08T10:45:53Z</time>
      </trkpt>
      <trkpt lat="44.67657" lon="6.63438">
        <ele>1031</ele>
        <time>2011-08-08T10:45:59Z</time>
      </trkpt>
      <trkpt lat="44.67667" lon="6.63453">
        <ele>1032</ele>
        <time>2011-08-08T10:46:06Z</time>
      </trkpt>
      <trkpt lat="44.67685" lon="6.63477">
        <ele>1033</ele>
        <time>2011-08-08T10:46:17Z</time>
      </trkpt>
      <trkpt lat="44.67703" lon="6.63502">
        <ele>1035</ele>
        <time>2011-08-08T10:46:27Z</time>
      </trkpt>
      <trkpt lat="44.67713" lon="6.63515">
        <ele>1037</ele>
        <time>2011-08-08T10:46:34Z</time>
      </trkpt>
      <trkpt lat="44.67728" lon="6.63528">
        <ele>1038</ele>
        <time>2011-08-08T10:46:40Z</time>
      </trkpt>
      <trkpt lat="44.67743" lon="6.6354">
        <ele>1040</ele>
        <time>2011-08-08T10:46:49Z</time>
      </trkpt>
      <trkpt lat="44.67755" lon="6.63553">
        <ele>1042</ele>
        <time>2011-08-08T10:46:56Z</time>
      </trkpt>
      <trkpt lat="44.67765" lon="6.63568">
        <ele>1044</ele>
        <time>2011-08-08T10:47:02Z</time>
      </trkpt>
      <trkpt lat="44.6777" lon="6.6359">
        <ele>1047</ele>
        <time>2011-08-08T10:47:08Z</time>
      </trkpt>
      <trkpt lat="44.6777" lon="6.63613">
        <ele>1050</ele>
        <time>2011-08-08T10:47:19Z</time>
      </trkpt>
      <trkpt lat="44.67788" lon="6.63618">
        <ele>1051</ele>
        <time>2011-08-08T10:48:30Z</time>
      </trkpt>
      <trkpt lat="44.67808" lon="6.6362">
        <ele>1051</ele>
        <time>2011-08-08T10:48:36Z</time>
      </trkpt>
      <trkpt lat="44.67822" lon="6.63617">
        <ele>1051</ele>
        <time>2011-08-08T10:48:40Z</time>
      </trkpt>
      <trkpt lat="44.67857" lon="6.636">
        <ele>1049</ele>
        <time>2011-08-08T10:48:48Z</time>
      </trkpt>
      <trkpt lat="44.67872" lon="6.63597">
        <ele>1049</ele>
        <time>2011-08-08T10:48:52Z</time>
      </trkpt>
      <trkpt lat="44.67883" lon="6.63612">
        <ele>1052</ele>
        <time>2011-08-08T10:48:59Z</time>
      </trkpt>
      <trkpt lat="44.67898" lon="6.63618">
        <ele>1055</ele>
        <time>2011-08-08T10:49:05Z</time>
      </trkpt>
      <trkpt lat="44.67915" lon="6.63622">
        <ele>1057</ele>
        <time>2011-08-08T10:49:09Z</time>
      </trkpt>
      <trkpt lat="44.67927" lon="6.6361">
        <ele>1057</ele>
        <time>2011-08-08T10:49:15Z</time>
      </trkpt>
      <trkpt lat="44.67923" lon="6.63588">
        <ele>1053</ele>
        <time>2011-08-08T10:49:21Z</time>
      </trkpt>
      <trkpt lat="44.67925" lon="6.63563">
        <ele>1049</ele>
        <time>2011-08-08T10:49:25Z</time>
      </trkpt>
      <trkpt lat="44.67933" lon="6.63538">
        <ele>1045</ele>
        <time>2011-08-08T10:49:30Z</time>
      </trkpt>
      <trkpt lat="44.6793" lon="6.6356">
        <ele>1049</ele>
        <time>2011-08-08T10:50:23Z</time>
      </trkpt>
      <trkpt lat="44.67927" lon="6.63583">
        <ele>1053</ele>
        <time>2011-08-08T10:50:29Z</time>
      </trkpt>
      <trkpt lat="44.67928" lon="6.6361">
        <ele>1057</ele>
        <time>2011-08-08T10:50:35Z</time>
      </trkpt>
      <trkpt lat="44.67942" lon="6.63602">
        <ele>1058</ele>
        <time>2011-08-08T10:51:22Z</time>
      </trkpt>
      <trkpt lat="44.67952" lon="6.63588">
        <ele>1058</ele>
        <time>2011-08-08T10:51:34Z</time>
      </trkpt>
      <trkpt lat="44.67965" lon="6.63577">
        <ele>1059</ele>
        <time>2011-08-08T10:51:45Z</time>
      </trkpt>
      <trkpt lat="44.6798" lon="6.63565">
        <ele>1059</ele>
        <time>2011-08-08T10:51:53Z</time>
      </trkpt>
      <trkpt lat="44.67995" lon="6.63557">
        <ele>1061</ele>
        <time>2011-08-08T10:52:02Z</time>
      </trkpt>
      <trkpt lat="44.6801" lon="6.63555">
        <ele>1064</ele>
        <time>2011-08-08T10:52:13Z</time>
      </trkpt>
      <trkpt lat="44.68025" lon="6.63555">
        <ele>1068</ele>
        <time>2011-08-08T10:52:21Z</time>
      </trkpt>
      <trkpt lat="44.68038" lon="6.6355">
        <ele>1070</ele>
        <time>2011-08-08T10:52:30Z</time>
      </trkpt>
      <trkpt lat="44.68052" lon="6.6354">
        <ele>1071</ele>
        <time>2011-08-08T10:52:39Z</time>
      </trkpt>
      <trkpt lat="44.68063" lon="6.63527">
        <ele>1071</ele>
        <time>2011-08-08T10:53:04Z</time>
      </trkpt>
      <trkpt lat="44.68063" lon="6.63547">
        <ele>1075</ele>
        <time>2011-08-08T10:53:24Z</time>
      </trkpt>
      <trkpt lat="44.68053" lon="6.63562">
        <ele>1076</ele>
        <time>2011-08-08T10:53:35Z</time>
      </trkpt>
      <trkpt lat="44.68043" lon="6.63575">
        <ele>1076</ele>
        <time>2011-08-08T10:53:43Z</time>
      </trkpt>
      <trkpt lat="44.68032" lon="6.63592">
        <ele>1077</ele>
        <time>2011-08-08T10:53:53Z</time>
      </trkpt>
      <trkpt lat="44.68047" lon="6.63585">
        <ele>1079</ele>
        <time>2011-08-08T10:54:12Z</time>
      </trkpt>
      <trkpt lat="44.68062" lon="6.63575">
        <ele>1081</ele>
        <time>2011-08-08T10:54:22Z</time>
      </trkpt>
      <trkpt lat="44.68077" lon="6.63567">
        <ele>1082</ele>
        <time>2011-08-08T10:54:32Z</time>
      </trkpt>
      <trkpt lat="44.68095" lon="6.63558">
        <ele>1085</ele>
        <time>2011-08-08T10:54:45Z</time>
      </trkpt>
      <trkpt lat="44.68108" lon="6.63548">
        <ele>1086</ele>
        <time>2011-08-08T10:54:53Z</time>
      </trkpt>
      <trkpt lat="44.68128" lon="6.63535">
        <ele>1088</ele>
        <time>2011-08-08T10:55:06Z</time>
      </trkpt>
      <trkpt lat="44.68152" lon="6.63518">
        <ele>1090</ele>
        <time>2011-08-08T10:55:18Z</time>
      </trkpt>
      <trkpt lat="44.68165" lon="6.63512">
        <ele>1092</ele>
        <time>2011-08-08T10:55:26Z</time>
      </trkpt>
      <trkpt lat="44.6818" lon="6.63507">
        <ele>1094</ele>
        <time>2011-08-08T10:55:37Z</time>
      </trkpt>
      <trkpt lat="44.68203" lon="6.63502">
        <ele>1098</ele>
        <time>2011-08-08T10:55:55Z</time>
      </trkpt>
      <trkpt lat="44.68218" lon="6.63493">
        <ele>1099</ele>
        <time>2011-08-08T10:56:03Z</time>
      </trkpt>
      <trkpt lat="44.68238" lon="6.63485">
        <ele>1100</ele>
        <time>2011-08-08T10:56:16Z</time>
      </trkpt>
      <trkpt lat="44.68255" lon="6.63477">
        <ele>1101</ele>
        <time>2011-08-08T10:56:26Z</time>
      </trkpt>
      <trkpt lat="44.6827" lon="6.63478">
        <ele>1103</ele>
        <time>2011-08-08T10:56:39Z</time>
      </trkpt>
      <trkpt lat="44.68285" lon="6.63482">
        <ele>1106</ele>
        <time>2011-08-08T10:56:51Z</time>
      </trkpt>
      <trkpt lat="44.68305" lon="6.63483">
        <ele>1108</ele>
        <time>2011-08-08T10:57:09Z</time>
      </trkpt>
      <trkpt lat="44.68323" lon="6.6349">
        <ele>1110</ele>
        <time>2011-08-08T10:57:26Z</time>
      </trkpt>
      <trkpt lat="44.68337" lon="6.63498">
        <ele>1113</ele>
        <time>2011-08-08T11:02:00Z</time>
      </trkpt>
      <trkpt lat="44.6835" lon="6.63502">
        <ele>1114</ele>
        <time>2011-08-08T11:02:10Z</time>
      </trkpt>
      <trkpt lat="44.68365" lon="6.635">
        <ele>1114</ele>
        <time>2011-08-08T11:02:22Z</time>
      </trkpt>
      <trkpt lat="44.68378" lon="6.63497">
        <ele>1114</ele>
        <time>2011-08-08T11:02:35Z</time>
      </trkpt>
      <trkpt lat="44.68393" lon="6.63498">
        <ele>1115</ele>
        <time>2011-08-08T11:02:52Z</time>
      </trkpt>
      <trkpt lat="44.68407" lon="6.63503">
        <ele>1117</ele>
        <time>2011-08-08T11:03:12Z</time>
      </trkpt>
      <trkpt lat="44.68415" lon="6.63522">
        <ele>1121</ele>
        <time>2011-08-08T11:03:24Z</time>
      </trkpt>
      <trkpt lat="44.68408" lon="6.63538">
        <ele>1124</ele>
        <time>2011-08-08T11:03:37Z</time>
      </trkpt>
      <trkpt lat="44.68395" lon="6.63548">
        <ele>1126</ele>
        <time>2011-08-08T11:03:55Z</time>
      </trkpt>
      <trkpt lat="44.68388" lon="6.63565">
        <ele>1129</ele>
        <time>2011-08-08T11:06:21Z</time>
      </trkpt>
      <trkpt lat="44.68385" lon="6.63585">
        <ele>1133</ele>
        <time>2011-08-08T11:06:40Z</time>
      </trkpt>
      <trkpt lat="44.68382" lon="6.63607">
        <ele>1136</ele>
        <time>2011-08-08T11:06:57Z</time>
      </trkpt>
      <trkpt lat="44.68382" lon="6.63632">
        <ele>1140</ele>
        <time>2011-08-08T11:07:23Z</time>
      </trkpt>
      <trkpt lat="44.68382" lon="6.63652">
        <ele>1143</ele>
        <time>2011-08-08T11:07:36Z</time>
      </trkpt>
      <trkpt lat="44.68365" lon="6.63667">
        <ele>1143</ele>
        <time>2011-08-08T11:07:54Z</time>
      </trkpt>
      <trkpt lat="44.6835" lon="6.6367">
        <ele>1142</ele>
        <time>2011-08-08T11:08:03Z</time>
      </trkpt>
      <trkpt lat="44.68337" lon="6.63682">
        <ele>1143</ele>
        <time>2011-08-08T11:08:09Z</time>
      </trkpt>
      <trkpt lat="44.68325" lon="6.63697">
        <ele>1144</ele>
        <time>2011-08-08T11:08:13Z</time>
      </trkpt>
      <trkpt lat="44.68315" lon="6.63713">
        <ele>1145</ele>
        <time>2011-08-08T11:08:17Z</time>
      </trkpt>
      <trkpt lat="44.68305" lon="6.63727">
        <ele>1146</ele>
        <time>2011-08-08T11:08:21Z</time>
      </trkpt>
      <trkpt lat="44.68295" lon="6.63743">
        <ele>1147</ele>
        <time>2011-08-08T11:08:26Z</time>
      </trkpt>
      <trkpt lat="44.68273" lon="6.63778">
        <ele>1149</ele>
        <time>2011-08-08T11:08:34Z</time>
      </trkpt>
      <trkpt lat="44.68262" lon="6.63797">
        <ele>1149</ele>
        <time>2011-08-08T11:08:38Z</time>
      </trkpt>
      <trkpt lat="44.68255" lon="6.63815">
        <ele>1150</ele>
        <time>2011-08-08T11:08:45Z</time>
      </trkpt>
      <trkpt lat="44.68248" lon="6.63832">
        <ele>1152</ele>
        <time>2011-08-08T11:08:51Z</time>
      </trkpt>
      <trkpt lat="44.68242" lon="6.63848">
        <ele>1153</ele>
        <time>2011-08-08T11:08:57Z</time>
      </trkpt>
      <trkpt lat="44.6823" lon="6.63863">
        <ele>1152</ele>
        <time>2011-08-08T11:09:03Z</time>
      </trkpt>
      <trkpt lat="44.68218" lon="6.63877">
        <ele>1151</ele>
        <time>2011-08-08T11:09:09Z</time>
      </trkpt>
      <trkpt lat="44.68205" lon="6.63887">
        <ele>1148</ele>
        <time>2011-08-08T11:09:18Z</time>
      </trkpt>
      <trkpt lat="44.68195" lon="6.639">
        <ele>1147</ele>
        <time>2011-08-08T11:09:28Z</time>
      </trkpt>
      <trkpt lat="44.68192" lon="6.6392">
        <ele>1147</ele>
        <time>2011-08-08T11:09:36Z</time>
      </trkpt>
      <trkpt lat="44.68187" lon="6.63947">
        <ele>1148</ele>
        <time>2011-08-08T11:09:45Z</time>
      </trkpt>
      <trkpt lat="44.68193" lon="6.63973">
        <ele>1152</ele>
        <time>2011-08-08T11:09:51Z</time>
      </trkpt>
      <trkpt lat="44.68187" lon="6.63995">
        <ele>1152</ele>
        <time>2011-08-08T11:09:59Z</time>
      </trkpt>
      <trkpt lat="44.68175" lon="6.64008">
        <ele>1151</ele>
        <time>2011-08-08T11:10:08Z</time>
      </trkpt>
      <trkpt lat="44.6819" lon="6.64012">
        <ele>1154</ele>
        <time>2011-08-08T11:10:20Z</time>
      </trkpt>
      <trkpt lat="44.68205" lon="6.64003">
        <ele>1158</ele>
        <time>2011-08-08T11:10:28Z</time>
      </trkpt>
      <trkpt lat="44.68208" lon="6.6398">
        <ele>1157</ele>
        <time>2011-08-08T11:10:39Z</time>
      </trkpt>
      <trkpt lat="44.68213" lon="6.63955">
        <ele>1157</ele>
        <time>2011-08-08T11:10:49Z</time>
      </trkpt>
      <trkpt lat="44.68225" lon="6.6394">
        <ele>1160</ele>
        <time>2011-08-08T11:10:57Z</time>
      </trkpt>
      <trkpt lat="44.68237" lon="6.63925">
        <ele>1162</ele>
        <time>2011-08-08T11:11:07Z</time>
      </trkpt>
      <trkpt lat="44.6825" lon="6.63928">
        <ele>1165</ele>
        <time>2011-08-08T11:11:19Z</time>
      </trkpt>
      <trkpt lat="44.6824" lon="6.63947">
        <ele>1164</ele>
        <time>2011-08-08T11:11:27Z</time>
      </trkpt>
      <trkpt lat="44.68235" lon="6.63965">
        <ele>1164</ele>
        <time>2011-08-08T11:11:36Z</time>
      </trkpt>
      <trkpt lat="44.68232" lon="6.63988">
        <ele>1165</ele>
        <time>2011-08-08T11:11:46Z</time>
      </trkpt>
      <trkpt lat="44.68237" lon="6.64012">
        <ele>1168</ele>
        <time>2011-08-08T11:11:56Z</time>
      </trkpt>
      <trkpt lat="44.68247" lon="6.64025">
        <ele>1171</ele>
        <time>2011-08-08T11:12:04Z</time>
      </trkpt>
      <trkpt lat="44.68243" lon="6.64003">
        <ele>1169</ele>
        <time>2011-08-08T11:12:12Z</time>
      </trkpt>
      <trkpt lat="44.68248" lon="6.63983">
        <ele>1169</ele>
        <time>2011-08-08T11:12:21Z</time>
      </trkpt>
      <trkpt lat="44.68262" lon="6.63965">
        <ele>1170</ele>
        <time>2011-08-08T11:12:29Z</time>
      </trkpt>
      <trkpt lat="44.68275" lon="6.63952">
        <ele>1172</ele>
        <time>2011-08-08T11:12:35Z</time>
      </trkpt>
      <trkpt lat="44.6829" lon="6.6394">
        <ele>1174</ele>
        <time>2011-08-08T11:12:41Z</time>
      </trkpt>
      <trkpt lat="44.68305" lon="6.63932">
        <ele>1175</ele>
        <time>2011-08-08T11:12:47Z</time>
      </trkpt>
      <trkpt lat="44.68323" lon="6.6393">
        <ele>1178</ele>
        <time>2011-08-08T11:12:56Z</time>
      </trkpt>
      <trkpt lat="44.68337" lon="6.63943">
        <ele>1183</ele>
        <time>2011-08-08T11:13:08Z</time>
      </trkpt>
      <trkpt lat="44.68352" lon="6.63945">
        <ele>1185</ele>
        <time>2011-08-08T11:13:36Z</time>
      </trkpt>
      <trkpt lat="44.68367" lon="6.63943">
        <ele>1186</ele>
        <time>2011-08-08T11:13:44Z</time>
      </trkpt>
      <trkpt lat="44.68383" lon="6.63935">
        <ele>1186</ele>
        <time>2011-08-08T11:13:53Z</time>
      </trkpt>
      <trkpt lat="44.68407" lon="6.63925">
        <ele>1187</ele>
        <time>2011-08-08T11:14:03Z</time>
      </trkpt>
      <trkpt lat="44.6842" lon="6.63918">
        <ele>1187</ele>
        <time>2011-08-08T11:14:07Z</time>
      </trkpt>
      <trkpt lat="44.68433" lon="6.63907">
        <ele>1187</ele>
        <time>2011-08-08T11:14:13Z</time>
      </trkpt>
      <trkpt lat="44.6845" lon="6.63897">
        <ele>1186</ele>
        <time>2011-08-08T11:14:19Z</time>
      </trkpt>
      <trkpt lat="44.68462" lon="6.63887">
        <ele>1185</ele>
        <time>2011-08-08T11:14:24Z</time>
      </trkpt>
      <trkpt lat="44.68475" lon="6.63878">
        <ele>1184</ele>
        <time>2011-08-08T11:14:28Z</time>
      </trkpt>
      <trkpt lat="44.68495" lon="6.63867">
        <ele>1182</ele>
        <time>2011-08-08T11:14:34Z</time>
      </trkpt>
      <trkpt lat="44.6851" lon="6.63862">
        <ele>1182</ele>
        <time>2011-08-08T11:14:38Z</time>
      </trkpt>
      <trkpt lat="44.68525" lon="6.63858">
        <ele>1180</ele>
        <time>2011-08-08T11:14:42Z</time>
      </trkpt>
      <trkpt lat="44.68535" lon="6.63882">
        <ele>1183</ele>
        <time>2011-08-08T11:14:48Z</time>
      </trkpt>
      <trkpt lat="44.68543" lon="6.63897">
        <ele>1186</ele>
        <time>2011-08-08T11:14:52Z</time>
      </trkpt>
      <trkpt lat="44.68555" lon="6.63915">
        <ele>1189</ele>
        <time>2011-08-08T11:14:56Z</time>
      </trkpt>
      <trkpt lat="44.68563" lon="6.63933">
        <ele>1191</ele>
        <time>2011-08-08T11:15:00Z</time>
      </trkpt>
      <trkpt lat="44.68575" lon="6.63952">
        <ele>1192</ele>
        <time>2011-08-08T11:15:04Z</time>
      </trkpt>
      <trkpt lat="44.68588" lon="6.63963">
        <ele>1192</ele>
        <time>2011-08-08T11:15:08Z</time>
      </trkpt>
      <trkpt lat="44.686" lon="6.63978">
        <ele>1192</ele>
        <time>2011-08-08T11:15:13Z</time>
      </trkpt>
      <trkpt lat="44.68617" lon="6.63987">
        <ele>1192</ele>
        <time>2011-08-08T11:15:17Z</time>
      </trkpt>
      <trkpt lat="44.6863" lon="6.63993">
        <ele>1191</ele>
        <time>2011-08-08T11:15:21Z</time>
      </trkpt>
      <trkpt lat="44.68647" lon="6.63998">
        <ele>1190</ele>
        <time>2011-08-08T11:15:27Z</time>
      </trkpt>
      <trkpt lat="44.68663" lon="6.64008">
        <ele>1191</ele>
        <time>2011-08-08T11:16:04Z</time>
      </trkpt>
      <trkpt lat="44.68677" lon="6.64005">
        <ele>1189</ele>
        <time>2011-08-08T11:16:10Z</time>
      </trkpt>
      <trkpt lat="44.68713" lon="6.63995">
        <ele>1184</ele>
        <time>2011-08-08T11:16:27Z</time>
      </trkpt>
      <trkpt lat="44.68728" lon="6.64003">
        <ele>1186</ele>
        <time>2011-08-08T11:16:35Z</time>
      </trkpt>
      <trkpt lat="44.6873" lon="6.64025">
        <ele>1193</ele>
        <time>2011-08-08T11:16:43Z</time>
      </trkpt>
      <trkpt lat="44.68738" lon="6.64042">
        <ele>1197</ele>
        <time>2011-08-08T11:16:53Z</time>
      </trkpt>
      <trkpt lat="44.68748" lon="6.64055">
        <ele>1200</ele>
        <time>2011-08-08T11:17:02Z</time>
      </trkpt>
      <trkpt lat="44.68757" lon="6.64072">
        <ele>1203</ele>
        <time>2011-08-08T11:17:12Z</time>
      </trkpt>
      <trkpt lat="44.68768" lon="6.64087">
        <ele>1204</ele>
        <time>2011-08-08T11:17:24Z</time>
      </trkpt>
      <trkpt lat="44.6878" lon="6.64077">
        <ele>1205</ele>
        <time>2011-08-08T11:17:36Z</time>
      </trkpt>
      <trkpt lat="44.6878" lon="6.64057">
        <ele>1201</ele>
        <time>2011-08-08T11:17:44Z</time>
      </trkpt>
      <trkpt lat="44.68783" lon="6.64037">
        <ele>1199</ele>
        <time>2011-08-08T11:17:55Z</time>
      </trkpt>
      <trkpt lat="44.68788" lon="6.64018">
        <ele>1198</ele>
        <time>2011-08-08T11:18:03Z</time>
      </trkpt>
      <trkpt lat="44.68802" lon="6.64005">
        <ele>1201</ele>
        <time>2011-08-08T11:18:11Z</time>
      </trkpt>
      <trkpt lat="44.68815" lon="6.63997">
        <ele>1204</ele>
        <time>2011-08-08T11:18:19Z</time>
      </trkpt>
      <trkpt lat="44.68828" lon="6.63987">
        <ele>1207</ele>
        <time>2011-08-08T11:18:27Z</time>
      </trkpt>
      <trkpt lat="44.68842" lon="6.63975">
        <ele>1211</ele>
        <time>2011-08-08T11:18:38Z</time>
      </trkpt>
      <trkpt lat="44.68847" lon="6.63957">
        <ele>1210</ele>
        <time>2011-08-08T11:18:46Z</time>
      </trkpt>
      <trkpt lat="44.68852" lon="6.63935">
        <ele>1209</ele>
        <time>2011-08-08T11:18:56Z</time>
      </trkpt>
      <trkpt lat="44.68863" lon="6.6392">
        <ele>1212</ele>
        <time>2011-08-08T11:19:04Z</time>
      </trkpt>
      <trkpt lat="44.68872" lon="6.63903">
        <ele>1214</ele>
        <time>2011-08-08T11:19:15Z</time>
      </trkpt>
      <trkpt lat="44.68877" lon="6.63885">
        <ele>1213</ele>
        <time>2011-08-08T11:19:23Z</time>
      </trkpt>
      <trkpt lat="44.68882" lon="6.63863">
        <ele>1210</ele>
        <time>2011-08-08T11:19:31Z</time>
      </trkpt>
      <trkpt lat="44.68888" lon="6.63838">
        <ele>1210</ele>
        <time>2011-08-08T11:19:44Z</time>
      </trkpt>
      <trkpt lat="44.68898" lon="6.63825">
        <ele>1212</ele>
        <time>2011-08-08T11:19:52Z</time>
      </trkpt>
      <trkpt lat="44.68913" lon="6.6382">
        <ele>1215</ele>
        <time>2011-08-08T11:20:00Z</time>
      </trkpt>
      <trkpt lat="44.68938" lon="6.63812">
        <ele>1218</ele>
        <time>2011-08-08T11:20:12Z</time>
      </trkpt>
      <trkpt lat="44.68953" lon="6.63807">
        <ele>1219</ele>
        <time>2011-08-08T11:20:20Z</time>
      </trkpt>
      <trkpt lat="44.68998" lon="6.6379">
        <ele>1224</ele>
        <time>2011-08-08T11:20:43Z</time>
      </trkpt>
      <trkpt lat="44.69012" lon="6.63783">
        <ele>1224</ele>
        <time>2011-08-08T11:20:49Z</time>
      </trkpt>
      <trkpt lat="44.69028" lon="6.63778">
        <ele>1223</ele>
        <time>2011-08-08T11:20:58Z</time>
      </trkpt>
      <trkpt lat="44.6905" lon="6.63775">
        <ele>1223</ele>
        <time>2011-08-08T11:21:08Z</time>
      </trkpt>
      <trkpt lat="44.69068" lon="6.63775">
        <ele>1220</ele>
        <time>2011-08-08T11:21:16Z</time>
      </trkpt>
      <trkpt lat="44.69082" lon="6.63782">
        <ele>1220</ele>
        <time>2011-08-08T11:22:51Z</time>
      </trkpt>
      <trkpt lat="44.69093" lon="6.63795">
        <ele>1221</ele>
        <time>2011-08-08T11:22:57Z</time>
      </trkpt>
      <trkpt lat="44.69105" lon="6.63812">
        <ele>1222</ele>
        <time>2011-08-08T11:23:03Z</time>
      </trkpt>
      <trkpt lat="44.6911" lon="6.6383">
        <ele>1224</ele>
        <time>2011-08-08T11:23:07Z</time>
      </trkpt>
      <trkpt lat="44.69112" lon="6.6385">
        <ele>1228</ele>
        <time>2011-08-08T11:23:13Z</time>
      </trkpt>
      <trkpt lat="44.69113" lon="6.6387">
        <ele>1231</ele>
        <time>2011-08-08T11:23:19Z</time>
      </trkpt>
      <trkpt lat="44.69122" lon="6.63885">
        <ele>1231</ele>
        <time>2011-08-08T11:23:25Z</time>
      </trkpt>
      <trkpt lat="44.69132" lon="6.63903">
        <ele>1231</ele>
        <time>2011-08-08T11:23:32Z</time>
      </trkpt>
      <trkpt lat="44.69137" lon="6.6393">
        <ele>1234</ele>
        <time>2011-08-08T11:23:38Z</time>
      </trkpt>
      <trkpt lat="44.6915" lon="6.63945">
        <ele>1231</ele>
        <time>2011-08-08T11:23:44Z</time>
      </trkpt>
      <trkpt lat="44.6916" lon="6.63958">
        <ele>1231</ele>
        <time>2011-08-08T11:23:48Z</time>
      </trkpt>
      <trkpt lat="44.6917" lon="6.63975">
        <ele>1231</ele>
        <time>2011-08-08T11:23:53Z</time>
      </trkpt>
      <trkpt lat="44.69187" lon="6.6399">
        <ele>1231</ele>
        <time>2011-08-08T11:23:59Z</time>
      </trkpt>
      <trkpt lat="44.69208" lon="6.64007">
        <ele>1235</ele>
        <time>2011-08-08T11:24:05Z</time>
      </trkpt>
      <trkpt lat="44.69223" lon="6.63992">
        <ele>1233</ele>
        <time>2011-08-08T11:24:11Z</time>
      </trkpt>
      <trkpt lat="44.69232" lon="6.63975">
        <ele>1233</ele>
        <time>2011-08-08T11:24:15Z</time>
      </trkpt>
      <trkpt lat="44.69238" lon="6.63958">
        <ele>1233</ele>
        <time>2011-08-08T11:24:19Z</time>
      </trkpt>
      <trkpt lat="44.69242" lon="6.63932">
        <ele>1231</ele>
        <time>2011-08-08T11:24:26Z</time>
      </trkpt>
      <trkpt lat="44.69243" lon="6.63905">
        <ele>1230</ele>
        <time>2011-08-08T11:24:32Z</time>
      </trkpt>
      <trkpt lat="44.69245" lon="6.63885">
        <ele>1228</ele>
        <time>2011-08-08T11:24:36Z</time>
      </trkpt>
      <trkpt lat="44.69252" lon="6.63867">
        <ele>1228</ele>
        <time>2011-08-08T11:24:40Z</time>
      </trkpt>
      <trkpt lat="44.6926" lon="6.63848">
        <ele>1228</ele>
        <time>2011-08-08T11:24:44Z</time>
      </trkpt>
      <trkpt lat="44.69273" lon="6.63828">
        <ele>1230</ele>
        <time>2011-08-08T11:24:48Z</time>
      </trkpt>
      <trkpt lat="44.69287" lon="6.63815">
        <ele>1231</ele>
        <time>2011-08-08T11:24:52Z</time>
      </trkpt>
      <trkpt lat="44.69298" lon="6.63795">
        <ele>1229</ele>
        <time>2011-08-08T11:24:59Z</time>
      </trkpt>
      <trkpt lat="44.69313" lon="6.63787">
        <ele>1230</ele>
        <time>2011-08-08T11:25:05Z</time>
      </trkpt>
      <trkpt lat="44.69328" lon="6.63783">
        <ele>1232</ele>
        <time>2011-08-08T11:25:09Z</time>
      </trkpt>
      <trkpt lat="44.69343" lon="6.6378">
        <ele>1232</ele>
        <time>2011-08-08T11:25:15Z</time>
      </trkpt>
      <trkpt lat="44.69357" lon="6.63785">
        <ele>1235</ele>
        <time>2011-08-08T11:25:21Z</time>
      </trkpt>
      <trkpt lat="44.69373" lon="6.63785">
        <ele>1237</ele>
        <time>2011-08-08T11:25:30Z</time>
      </trkpt>
      <trkpt lat="44.69385" lon="6.63775">
        <ele>1238</ele>
        <time>2011-08-08T11:25:38Z</time>
      </trkpt>
      <trkpt lat="44.6939" lon="6.63752">
        <ele>1236</ele>
        <time>2011-08-08T11:25:46Z</time>
      </trkpt>
      <trkpt lat="44.69398" lon="6.63737">
        <ele>1238</ele>
        <time>2011-08-08T11:25:53Z</time>
      </trkpt>
      <trkpt lat="44.69402" lon="6.63717">
        <ele>1237</ele>
        <time>2011-08-08T11:25:59Z</time>
      </trkpt>
      <trkpt lat="44.69403" lon="6.63697">
        <ele>1236</ele>
        <time>2011-08-08T11:26:03Z</time>
      </trkpt>
      <trkpt lat="44.69402" lon="6.63673">
        <ele>1234</ele>
        <time>2011-08-08T11:26:07Z</time>
      </trkpt>
      <trkpt lat="44.69398" lon="6.63653">
        <ele>1231</ele>
        <time>2011-08-08T11:26:11Z</time>
      </trkpt>
      <trkpt lat="44.69407" lon="6.63628">
        <ele>1234</ele>
        <time>2011-08-08T11:26:18Z</time>
      </trkpt>
      <trkpt lat="44.69415" lon="6.63608">
        <ele>1237</ele>
        <time>2011-08-08T11:26:22Z</time>
      </trkpt>
      <trkpt lat="44.69418" lon="6.63585">
        <ele>1237</ele>
        <time>2011-08-08T11:26:26Z</time>
      </trkpt>
      <trkpt lat="44.69412" lon="6.63558">
        <ele>1234</ele>
        <time>2011-08-08T11:26:30Z</time>
      </trkpt>
      <trkpt lat="44.69405" lon="6.63538">
        <ele>1231</ele>
        <time>2011-08-08T11:26:34Z</time>
      </trkpt>
      <trkpt lat="44.69407" lon="6.63508">
        <ele>1232</ele>
        <time>2011-08-08T11:26:38Z</time>
      </trkpt>
      <trkpt lat="44.69398" lon="6.6348">
        <ele>1227</ele>
        <time>2011-08-08T11:26:42Z</time>
      </trkpt>
      <trkpt lat="44.69397" lon="6.6345">
        <ele>1224</ele>
        <time>2011-08-08T11:26:47Z</time>
      </trkpt>
      <trkpt lat="44.69398" lon="6.6342">
        <ele>1221</ele>
        <time>2011-08-08T11:26:51Z</time>
      </trkpt>
      <trkpt lat="44.69403" lon="6.634">
        <ele>1221</ele>
        <time>2011-08-08T11:26:57Z</time>
      </trkpt>
      <trkpt lat="44.69397" lon="6.63383">
        <ele>1217</ele>
        <time>2011-08-08T11:27:40Z</time>
      </trkpt>
      <trkpt lat="44.69403" lon="6.63357">
        <ele>1216</ele>
        <time>2011-08-08T11:27:46Z</time>
      </trkpt>
      <trkpt lat="44.69407" lon="6.63332">
        <ele>1214</ele>
        <time>2011-08-08T11:27:50Z</time>
      </trkpt>
      <trkpt lat="44.69398" lon="6.63307">
        <ele>1211</ele>
        <time>2011-08-08T11:27:54Z</time>
      </trkpt>
      <trkpt lat="44.69387" lon="6.63285">
        <ele>1208</ele>
        <time>2011-08-08T11:27:58Z</time>
      </trkpt>
      <trkpt lat="44.69373" lon="6.63268">
        <ele>1205</ele>
        <time>2011-08-08T11:28:02Z</time>
      </trkpt>
      <trkpt lat="44.69357" lon="6.63258">
        <ele>1203</ele>
        <time>2011-08-08T11:28:06Z</time>
      </trkpt>
      <trkpt lat="44.69338" lon="6.63248">
        <ele>1199</ele>
        <time>2011-08-08T11:28:10Z</time>
      </trkpt>
      <trkpt lat="44.69325" lon="6.63237">
        <ele>1195</ele>
        <time>2011-08-08T11:28:15Z</time>
      </trkpt>
      <trkpt lat="44.69322" lon="6.63213">
        <ele>1193</ele>
        <time>2011-08-08T11:28:19Z</time>
      </trkpt>
      <trkpt lat="44.6933" lon="6.63188">
        <ele>1193</ele>
        <time>2011-08-08T11:28:23Z</time>
      </trkpt>
      <trkpt lat="44.6934" lon="6.63173">
        <ele>1193</ele>
        <time>2011-08-08T11:28:25Z</time>
      </trkpt>
      <trkpt lat="44.69353" lon="6.63155">
        <ele>1191</ele>
        <time>2011-08-08T11:28:29Z</time>
      </trkpt>
      <trkpt lat="44.69372" lon="6.63138">
        <ele>1188</ele>
        <time>2011-08-08T11:28:33Z</time>
      </trkpt>
      <trkpt lat="44.69388" lon="6.63125">
        <ele>1185</ele>
        <time>2011-08-08T11:28:37Z</time>
      </trkpt>
      <trkpt lat="44.69405" lon="6.63115">
        <ele>1180</ele>
        <time>2011-08-08T11:28:41Z</time>
      </trkpt>
      <trkpt lat="44.69398" lon="6.63097">
        <ele>1176</ele>
        <time>2011-08-08T11:29:58Z</time>
      </trkpt>
      <trkpt lat="44.6938" lon="6.63095">
        <ele>1176</ele>
        <time>2011-08-08T11:30:02Z</time>
      </trkpt>
      <trkpt lat="44.69347" lon="6.63093">
        <ele>1175</ele>
        <time>2011-08-08T11:30:08Z</time>
      </trkpt>
      <trkpt lat="44.69295" lon="6.6309">
        <ele>1166</ele>
        <time>2011-08-08T11:30:16Z</time>
      </trkpt>
      <trkpt lat="44.69273" lon="6.63088">
        <ele>1163</ele>
        <time>2011-08-08T11:30:20Z</time>
      </trkpt>
      <trkpt lat="44.69228" lon="6.63087">
        <ele>1156</ele>
        <time>2011-08-08T11:30:28Z</time>
      </trkpt>
      <trkpt lat="44.69208" lon="6.6308">
        <ele>1151</ele>
        <time>2011-08-08T11:30:32Z</time>
      </trkpt>
      <trkpt lat="44.69195" lon="6.6307">
        <ele>1148</ele>
        <time>2011-08-08T11:30:37Z</time>
      </trkpt>
      <trkpt lat="44.69192" lon="6.6305">
        <ele>1145</ele>
        <time>2011-08-08T11:30:41Z</time>
      </trkpt>
      <trkpt lat="44.692" lon="6.63033">
        <ele>1144</ele>
        <time>2011-08-08T11:30:45Z</time>
      </trkpt>
      <trkpt lat="44.69208" lon="6.63015">
        <ele>1142</ele>
        <time>2011-08-08T11:30:51Z</time>
      </trkpt>
      <trkpt lat="44.69218" lon="6.63">
        <ele>1141</ele>
        <time>2011-08-08T11:30:55Z</time>
      </trkpt>
      <trkpt lat="44.69232" lon="6.62985">
        <ele>1140</ele>
        <time>2011-08-08T11:31:00Z</time>
      </trkpt>
      <trkpt lat="44.69255" lon="6.62963">
        <ele>1138</ele>
        <time>2011-08-08T11:31:06Z</time>
      </trkpt>
      <trkpt lat="44.69268" lon="6.62943">
        <ele>1135</ele>
        <time>2011-08-08T11:31:10Z</time>
      </trkpt>
      <trkpt lat="44.69287" lon="6.62925">
        <ele>1131</ele>
        <time>2011-08-08T11:31:14Z</time>
      </trkpt>
      <trkpt lat="44.69312" lon="6.6291">
        <ele>1129</ele>
        <time>2011-08-08T11:31:18Z</time>
      </trkpt>
      <trkpt lat="44.69348" lon="6.62888">
        <ele>1124</ele>
        <time>2011-08-08T11:31:26Z</time>
      </trkpt>
      <trkpt lat="44.69362" lon="6.62878">
        <ele>1120</ele>
        <time>2011-08-08T11:31:31Z</time>
      </trkpt>
      <trkpt lat="44.69383" lon="6.62892">
        <ele>1120</ele>
        <time>2011-08-08T11:31:50Z</time>
      </trkpt>
      <trkpt lat="44.69398" lon="6.6291">
        <ele>1123</ele>
        <time>2011-08-08T11:31:56Z</time>
      </trkpt>
      <trkpt lat="44.69413" lon="6.62913">
        <ele>1121</ele>
        <time>2011-08-08T11:32:00Z</time>
      </trkpt>
      <trkpt lat="44.69428" lon="6.62907">
        <ele>1116</ele>
        <time>2011-08-08T11:32:04Z</time>
      </trkpt>
      <trkpt lat="44.69448" lon="6.62922">
        <ele>1117</ele>
        <time>2011-08-08T11:32:10Z</time>
      </trkpt>
      <trkpt lat="44.69465" lon="6.62935">
        <ele>1117</ele>
        <time>2011-08-08T11:32:14Z</time>
      </trkpt>
      <trkpt lat="44.69478" lon="6.62942">
        <ele>1115</ele>
        <time>2011-08-08T11:32:18Z</time>
      </trkpt>
      <trkpt lat="44.695" lon="6.62945">
        <ele>1111</ele>
        <time>2011-08-08T11:32:25Z</time>
      </trkpt>
      <trkpt lat="44.69517" lon="6.6295">
        <ele>1110</ele>
        <time>2011-08-08T11:32:29Z</time>
      </trkpt>
      <trkpt lat="44.69543" lon="6.62958">
        <ele>1108</ele>
        <time>2011-08-08T11:32:35Z</time>
      </trkpt>
      <trkpt lat="44.69563" lon="6.6296">
        <ele>1108</ele>
        <time>2011-08-08T11:32:41Z</time>
      </trkpt>
      <trkpt lat="44.69582" lon="6.62965">
        <ele>1108</ele>
        <time>2011-08-08T11:32:47Z</time>
      </trkpt>
      <trkpt lat="44.696" lon="6.6297">
        <ele>1108</ele>
        <time>2011-08-08T11:32:54Z</time>
      </trkpt>
      <trkpt lat="44.69615" lon="6.62975">
        <ele>1108</ele>
        <time>2011-08-08T11:33:00Z</time>
      </trkpt>
      <trkpt lat="44.69632" lon="6.62982">
        <ele>1109</ele>
        <time>2011-08-08T11:33:04Z</time>
      </trkpt>
      <trkpt lat="44.69645" lon="6.62985">
        <ele>1110</ele>
        <time>2011-08-08T11:33:14Z</time>
      </trkpt>
      <trkpt lat="44.69632" lon="6.6298">
        <ele>1109</ele>
        <time>2011-08-08T11:35:09Z</time>
      </trkpt>
      <trkpt lat="44.69618" lon="6.62975">
        <ele>1108</ele>
        <time>2011-08-08T11:35:17Z</time>
      </trkpt>
      <trkpt lat="44.69605" lon="6.6297">
        <ele>1108</ele>
        <time>2011-08-08T11:35:27Z</time>
      </trkpt>
      <trkpt lat="44.69588" lon="6.62972">
        <ele>1109</ele>
        <time>2011-08-08T11:35:36Z</time>
      </trkpt>
      <trkpt lat="44.69573" lon="6.62965">
        <ele>1108</ele>
        <time>2011-08-08T11:35:44Z</time>
      </trkpt>
      <trkpt lat="44.69553" lon="6.62963">
        <ele>1109</ele>
        <time>2011-08-08T11:35:50Z</time>
      </trkpt>
      <trkpt lat="44.6954" lon="6.6295">
        <ele>1106</ele>
        <time>2011-08-08T11:36:17Z</time>
      </trkpt>
      <trkpt lat="44.69543" lon="6.62925">
        <ele>1101</ele>
        <time>2011-08-08T11:36:21Z</time>
      </trkpt>
      <trkpt lat="44.69552" lon="6.62842">
        <ele>1087</ele>
        <time>2011-08-08T11:36:32Z</time>
      </trkpt>
      <trkpt lat="44.69545" lon="6.62815">
        <ele>1084</ele>
        <time>2011-08-08T11:36:36Z</time>
      </trkpt>
      <trkpt lat="44.69533" lon="6.62802">
        <ele>1082</ele>
        <time>2011-08-08T11:36:38Z</time>
      </trkpt>
      <trkpt lat="44.69518" lon="6.62782">
        <ele>1079</ele>
        <time>2011-08-08T11:36:42Z</time>
      </trkpt>
      <trkpt lat="44.69498" lon="6.62752">
        <ele>1073</ele>
        <time>2011-08-08T11:36:48Z</time>
      </trkpt>
      <trkpt lat="44.69493" lon="6.62733">
        <ele>1069</ele>
        <time>2011-08-08T11:36:52Z</time>
      </trkpt>
      <trkpt lat="44.695" lon="6.62717">
        <ele>1066</ele>
        <time>2011-08-08T11:36:56Z</time>
      </trkpt>
      <trkpt lat="44.69515" lon="6.62702">
        <ele>1065</ele>
        <time>2011-08-08T11:37:01Z</time>
      </trkpt>
      <trkpt lat="44.69528" lon="6.62695">
        <ele>1065</ele>
        <time>2011-08-08T11:37:05Z</time>
      </trkpt>
      <trkpt lat="44.69545" lon="6.62703">
        <ele>1067</ele>
        <time>2011-08-08T11:37:11Z</time>
      </trkpt>
      <trkpt lat="44.69558" lon="6.62712">
        <ele>1069</ele>
        <time>2011-08-08T11:37:23Z</time>
      </trkpt>
      <trkpt lat="44.69573" lon="6.6271">
        <ele>1071</ele>
        <time>2011-08-08T11:37:36Z</time>
      </trkpt>
      <trkpt lat="44.69587" lon="6.62705">
        <ele>1073</ele>
        <time>2011-08-08T11:37:48Z</time>
      </trkpt>
      <trkpt lat="44.69583" lon="6.62682">
        <ele>1072</ele>
        <time>2011-08-08T11:37:54Z</time>
      </trkpt>
      <trkpt lat="44.69578" lon="6.62662">
        <ele>1072</ele>
        <time>2011-08-08T11:38:03Z</time>
      </trkpt>
      <trkpt lat="44.6957" lon="6.62645">
        <ele>1070</ele>
        <time>2011-08-08T11:38:09Z</time>
      </trkpt>
      <trkpt lat="44.6956" lon="6.62622">
        <ele>1071</ele>
        <time>2011-08-08T11:38:15Z</time>
      </trkpt>
      <trkpt lat="44.69552" lon="6.62607">
        <ele>1070</ele>
        <time>2011-08-08T11:38:21Z</time>
      </trkpt>
      <trkpt lat="44.69542" lon="6.62587">
        <ele>1070</ele>
        <time>2011-08-08T11:38:30Z</time>
      </trkpt>
      <trkpt lat="44.69532" lon="6.6257">
        <ele>1070</ele>
        <time>2011-08-08T11:38:36Z</time>
      </trkpt>
      <trkpt lat="44.69525" lon="6.6255">
        <ele>1071</ele>
        <time>2011-08-08T11:40:00Z</time>
      </trkpt>
      <trkpt lat="44.69517" lon="6.6253">
        <ele>1072</ele>
        <time>2011-08-08T11:40:09Z</time>
      </trkpt>
      <trkpt lat="44.6951" lon="6.62512">
        <ele>1073</ele>
        <time>2011-08-08T11:40:15Z</time>
      </trkpt>
      <trkpt lat="44.69497" lon="6.625">
        <ele>1071</ele>
        <time>2011-08-08T11:40:23Z</time>
      </trkpt>
      <trkpt lat="44.69487" lon="6.62485">
        <ele>1070</ele>
        <time>2011-08-08T11:40:32Z</time>
      </trkpt>
      <trkpt lat="44.69477" lon="6.62468">
        <ele>1070</ele>
        <time>2011-08-08T11:40:40Z</time>
      </trkpt>
      <trkpt lat="44.69475" lon="6.62447">
        <ele>1071</ele>
        <time>2011-08-08T11:40:48Z</time>
      </trkpt>
      <trkpt lat="44.69485" lon="6.62432">
        <ele>1073</ele>
        <time>2011-08-08T11:40:56Z</time>
      </trkpt>
      <trkpt lat="44.69497" lon="6.62422">
        <ele>1076</ele>
        <time>2011-08-08T11:41:05Z</time>
      </trkpt>
      <trkpt lat="44.69512" lon="6.62417">
        <ele>1081</ele>
        <time>2011-08-08T11:41:13Z</time>
      </trkpt>
      <trkpt lat="44.69527" lon="6.6241">
        <ele>1082</ele>
        <time>2011-08-08T11:41:21Z</time>
      </trkpt>
      <trkpt lat="44.6956" lon="6.62393">
        <ele>1083</ele>
        <time>2011-08-08T11:41:40Z</time>
      </trkpt>
      <trkpt lat="44.69575" lon="6.62392">
        <ele>1082</ele>
        <time>2011-08-08T11:41:46Z</time>
      </trkpt>
      <trkpt lat="44.6959" lon="6.62398">
        <ele>1084</ele>
        <time>2011-08-08T11:41:54Z</time>
      </trkpt>
      <trkpt lat="44.69605" lon="6.62407">
        <ele>1085</ele>
        <time>2011-08-08T11:42:06Z</time>
      </trkpt>
      <trkpt lat="44.6962" lon="6.62408">
        <ele>1085</ele>
        <time>2011-08-08T11:42:15Z</time>
      </trkpt>
      <trkpt lat="44.69645" lon="6.62417">
        <ele>1087</ele>
        <time>2011-08-08T11:42:33Z</time>
      </trkpt>
      <trkpt lat="44.69672" lon="6.62425">
        <ele>1089</ele>
        <time>2011-08-08T11:42:42Z</time>
      </trkpt>
      <trkpt lat="44.69687" lon="6.62427">
        <ele>1089</ele>
        <time>2011-08-08T11:42:46Z</time>
      </trkpt>
      <trkpt lat="44.69702" lon="6.62427">
        <ele>1089</ele>
        <time>2011-08-08T11:42:50Z</time>
      </trkpt>
      <trkpt lat="44.69722" lon="6.62438">
        <ele>1092</ele>
        <time>2011-08-08T11:42:56Z</time>
      </trkpt>
      <trkpt lat="44.69735" lon="6.62443">
        <ele>1093</ele>
        <time>2011-08-08T11:43:00Z</time>
      </trkpt>
      <trkpt lat="44.6975" lon="6.62438">
        <ele>1093</ele>
        <time>2011-08-08T11:43:07Z</time>
      </trkpt>
      <trkpt lat="44.6977" lon="6.62427">
        <ele>1091</ele>
        <time>2011-08-08T11:43:15Z</time>
      </trkpt>
      <trkpt lat="44.69788" lon="6.62428">
        <ele>1092</ele>
        <time>2011-08-08T11:43:21Z</time>
      </trkpt>
      <trkpt lat="44.69803" lon="6.6243">
        <ele>1094</ele>
        <time>2011-08-08T11:43:27Z</time>
      </trkpt>
      <trkpt lat="44.6982" lon="6.6243">
        <ele>1096</ele>
        <time>2011-08-08T11:43:36Z</time>
      </trkpt>
      <trkpt lat="44.69833" lon="6.6244">
        <ele>1101</ele>
        <time>2011-08-08T11:43:46Z</time>
      </trkpt>
      <trkpt lat="44.69845" lon="6.62452">
        <ele>1106</ele>
        <time>2011-08-08T11:43:54Z</time>
      </trkpt>
      <trkpt lat="44.69857" lon="6.62465">
        <ele>1110</ele>
        <time>2011-08-08T11:44:02Z</time>
      </trkpt>
      <trkpt lat="44.6987" lon="6.6246">
        <ele>1112</ele>
        <time>2011-08-08T11:44:10Z</time>
      </trkpt>
      <trkpt lat="44.6988" lon="6.62447">
        <ele>1113</ele>
        <time>2011-08-08T11:44:19Z</time>
      </trkpt>
      <trkpt lat="44.6988" lon="6.62425">
        <ele>1111</ele>
        <time>2011-08-08T11:44:27Z</time>
      </trkpt>
      <trkpt lat="44.6988" lon="6.62402">
        <ele>1110</ele>
        <time>2011-08-08T11:44:37Z</time>
      </trkpt>
      <trkpt lat="44.69885" lon="6.62382">
        <ele>1111</ele>
        <time>2011-08-08T11:44:46Z</time>
      </trkpt>
      <trkpt lat="44.6989" lon="6.6236">
        <ele>1113</ele>
        <time>2011-08-08T11:44:56Z</time>
      </trkpt>
      <trkpt lat="44.69893" lon="6.62337">
        <ele>1112</ele>
        <time>2011-08-08T11:45:04Z</time>
      </trkpt>
      <trkpt lat="44.69898" lon="6.62317">
        <ele>1111</ele>
        <time>2011-08-08T11:45:13Z</time>
      </trkpt>
      <trkpt lat="44.69912" lon="6.62313">
        <ele>1114</ele>
        <time>2011-08-08T11:45:21Z</time>
      </trkpt>
      <trkpt lat="44.69927" lon="6.62318">
        <ele>1117</ele>
        <time>2011-08-08T11:45:31Z</time>
      </trkpt>
      <trkpt lat="44.6994" lon="6.62325">
        <ele>1117</ele>
        <time>2011-08-08T11:45:40Z</time>
      </trkpt>
      <trkpt lat="44.69952" lon="6.62338">
        <ele>1118</ele>
        <time>2011-08-08T11:45:50Z</time>
      </trkpt>
      <trkpt lat="44.69967" lon="6.6236">
        <ele>1122</ele>
        <time>2011-08-08T11:46:00Z</time>
      </trkpt>
      <trkpt lat="44.6998" lon="6.62373">
        <ele>1124</ele>
        <time>2011-08-08T11:46:11Z</time>
      </trkpt>
      <trkpt lat="44.69992" lon="6.62385">
        <ele>1126</ele>
        <time>2011-08-08T11:46:19Z</time>
      </trkpt>
      <trkpt lat="44.70003" lon="6.624">
        <ele>1130</ele>
        <time>2011-08-08T11:46:27Z</time>
      </trkpt>
      <trkpt lat="44.70012" lon="6.62415">
        <ele>1136</ele>
        <time>2011-08-08T11:46:37Z</time>
      </trkpt>
      <trkpt lat="44.70025" lon="6.62412">
        <ele>1139</ele>
        <time>2011-08-08T11:47:10Z</time>
      </trkpt>
      <trkpt lat="44.70037" lon="6.62398">
        <ele>1138</ele>
        <time>2011-08-08T11:47:18Z</time>
      </trkpt>
      <trkpt lat="44.70043" lon="6.62382">
        <ele>1136</ele>
        <time>2011-08-08T11:47:24Z</time>
      </trkpt>
      <trkpt lat="44.70053" lon="6.62367">
        <ele>1135</ele>
        <time>2011-08-08T11:47:32Z</time>
      </trkpt>
      <trkpt lat="44.70065" lon="6.62355">
        <ele>1137</ele>
        <time>2011-08-08T11:47:41Z</time>
      </trkpt>
      <trkpt lat="44.70078" lon="6.62342">
        <ele>1140</ele>
        <time>2011-08-08T11:47:49Z</time>
      </trkpt>
      <trkpt lat="44.70087" lon="6.62327">
        <ele>1140</ele>
        <time>2011-08-08T11:47:56Z</time>
      </trkpt>
      <trkpt lat="44.701" lon="6.62315">
        <ele>1142</ele>
        <time>2011-08-08T11:48:04Z</time>
      </trkpt>
      <trkpt lat="44.70118" lon="6.623">
        <ele>1144</ele>
        <time>2011-08-08T11:48:14Z</time>
      </trkpt>
      <trkpt lat="44.70128" lon="6.62282">
        <ele>1142</ele>
        <time>2011-08-08T11:48:25Z</time>
      </trkpt>
      <trkpt lat="44.7014" lon="6.62263">
        <ele>1140</ele>
        <time>2011-08-08T11:48:35Z</time>
      </trkpt>
      <trkpt lat="44.70143" lon="6.62285">
        <ele>1146</ele>
        <time>2011-08-08T11:48:52Z</time>
      </trkpt>
      <trkpt lat="44.70137" lon="6.62308">
        <ele>1151</ele>
        <time>2011-08-08T11:49:02Z</time>
      </trkpt>
      <trkpt lat="44.70133" lon="6.6233">
        <ele>1156</ele>
        <time>2011-08-08T11:49:13Z</time>
      </trkpt>
      <trkpt lat="44.70125" lon="6.62348">
        <ele>1158</ele>
        <time>2011-08-08T11:49:23Z</time>
      </trkpt>
      <trkpt lat="44.70117" lon="6.62365">
        <ele>1160</ele>
        <time>2011-08-08T11:49:31Z</time>
      </trkpt>
      <trkpt lat="44.70105" lon="6.62385">
        <ele>1161</ele>
        <time>2011-08-08T11:49:44Z</time>
      </trkpt>
      <trkpt lat="44.70093" lon="6.624">
        <ele>1160</ele>
        <time>2011-08-08T11:49:54Z</time>
      </trkpt>
      <trkpt lat="44.70108" lon="6.62402">
        <ele>1165</ele>
        <time>2011-08-08T11:50:17Z</time>
      </trkpt>
      <trkpt lat="44.70122" lon="6.6239">
        <ele>1167</ele>
        <time>2011-08-08T11:50:27Z</time>
      </trkpt>
      <trkpt lat="44.70137" lon="6.6238">
        <ele>1170</ele>
        <time>2011-08-08T11:50:37Z</time>
      </trkpt>
      <trkpt lat="44.7015" lon="6.62367">
        <ele>1170</ele>
        <time>2011-08-08T11:50:48Z</time>
      </trkpt>
      <trkpt lat="44.70163" lon="6.62353">
        <ele>1169</ele>
        <time>2011-08-08T11:50:58Z</time>
      </trkpt>
      <trkpt lat="44.70178" lon="6.62355">
        <ele>1172</ele>
        <time>2011-08-08T11:54:10Z</time>
      </trkpt>
      <trkpt lat="44.70197" lon="6.62358">
        <ele>1178</ele>
        <time>2011-08-08T11:54:45Z</time>
      </trkpt>
      <trkpt lat="44.7021" lon="6.62345">
        <ele>1178</ele>
        <time>2011-08-08T11:54:56Z</time>
      </trkpt>
      <trkpt lat="44.7022" lon="6.6233">
        <ele>1177</ele>
        <time>2011-08-08T11:55:00Z</time>
      </trkpt>
      <trkpt lat="44.7023" lon="6.62315">
        <ele>1175</ele>
        <time>2011-08-08T11:55:04Z</time>
      </trkpt>
      <trkpt lat="44.70242" lon="6.62305">
        <ele>1176</ele>
        <time>2011-08-08T11:55:08Z</time>
      </trkpt>
      <trkpt lat="44.70258" lon="6.62293">
        <ele>1178</ele>
        <time>2011-08-08T11:55:14Z</time>
      </trkpt>
      <trkpt lat="44.70275" lon="6.62293">
        <ele>1184</ele>
        <time>2011-08-08T11:55:21Z</time>
      </trkpt>
      <trkpt lat="44.7029" lon="6.62273">
        <ele>1183</ele>
        <time>2011-08-08T11:55:27Z</time>
      </trkpt>
      <trkpt lat="44.70303" lon="6.62265">
        <ele>1185</ele>
        <time>2011-08-08T11:55:31Z</time>
      </trkpt>
      <trkpt lat="44.70315" lon="6.62248">
        <ele>1183</ele>
        <time>2011-08-08T11:55:35Z</time>
      </trkpt>
      <trkpt lat="44.70328" lon="6.62233">
        <ele>1182</ele>
        <time>2011-08-08T11:55:41Z</time>
      </trkpt>
      <trkpt lat="44.70343" lon="6.62222">
        <ele>1183</ele>
        <time>2011-08-08T11:55:48Z</time>
      </trkpt>
      <trkpt lat="44.70355" lon="6.62202">
        <ele>1180</ele>
        <time>2011-08-08T11:55:54Z</time>
      </trkpt>
      <trkpt lat="44.70368" lon="6.62197">
        <ele>1183</ele>
        <time>2011-08-08T11:55:58Z</time>
      </trkpt>
      <trkpt lat="44.70378" lon="6.62178">
        <ele>1179</ele>
        <time>2011-08-08T11:56:04Z</time>
      </trkpt>
      <trkpt lat="44.70392" lon="6.62152">
        <ele>1174</ele>
        <time>2011-08-08T11:56:12Z</time>
      </trkpt>
      <trkpt lat="44.70407" lon="6.62137">
        <ele>1174</ele>
        <time>2011-08-08T11:56:18Z</time>
      </trkpt>
      <trkpt lat="44.70418" lon="6.62123">
        <ele>1173</ele>
        <time>2011-08-08T11:56:22Z</time>
      </trkpt>
      <trkpt lat="44.70435" lon="6.62118">
        <ele>1177</ele>
        <time>2011-08-08T11:56:29Z</time>
      </trkpt>
      <trkpt lat="44.70447" lon="6.62108">
        <ele>1178</ele>
        <time>2011-08-08T11:56:33Z</time>
      </trkpt>
      <trkpt lat="44.70462" lon="6.621">
        <ele>1180</ele>
        <time>2011-08-08T11:56:39Z</time>
      </trkpt>
      <trkpt lat="44.70473" lon="6.62083">
        <ele>1178</ele>
        <time>2011-08-08T11:56:45Z</time>
      </trkpt>
      <trkpt lat="44.70477" lon="6.62062">
        <ele>1172</ele>
        <time>2011-08-08T11:56:51Z</time>
      </trkpt>
      <trkpt lat="44.70488" lon="6.62043">
        <ele>1169</ele>
        <time>2011-08-08T11:56:59Z</time>
      </trkpt>
      <trkpt lat="44.70503" lon="6.62035">
        <ele>1170</ele>
        <time>2011-08-08T11:57:06Z</time>
      </trkpt>
      <trkpt lat="44.70518" lon="6.62047">
        <ele>1179</ele>
        <time>2011-08-08T11:57:12Z</time>
      </trkpt>
      <trkpt lat="44.70532" lon="6.62053">
        <ele>1185</ele>
        <time>2011-08-08T11:57:16Z</time>
      </trkpt>
      <trkpt lat="44.70542" lon="6.62028">
        <ele>1178</ele>
        <time>2011-08-08T11:57:24Z</time>
      </trkpt>
      <trkpt lat="44.70553" lon="6.62015">
        <ele>1179</ele>
        <time>2011-08-08T11:57:28Z</time>
      </trkpt>
      <trkpt lat="44.70565" lon="6.62005">
        <ele>1181</ele>
        <time>2011-08-08T11:57:33Z</time>
      </trkpt>
      <trkpt lat="44.70573" lon="6.61983">
        <ele>1180</ele>
        <time>2011-08-08T11:57:39Z</time>
      </trkpt>
      <trkpt lat="44.70575" lon="6.6196">
        <ele>1174</ele>
        <time>2011-08-08T11:57:45Z</time>
      </trkpt>
      <trkpt lat="44.70588" lon="6.61945">
        <ele>1174</ele>
        <time>2011-08-08T11:57:49Z</time>
      </trkpt>
      <trkpt lat="44.70602" lon="6.61935">
        <ele>1175</ele>
        <time>2011-08-08T11:57:53Z</time>
      </trkpt>
      <trkpt lat="44.70615" lon="6.6193">
        <ele>1177</ele>
        <time>2011-08-08T11:57:57Z</time>
      </trkpt>
      <trkpt lat="44.70628" lon="6.61923">
        <ele>1179</ele>
        <time>2011-08-08T11:58:02Z</time>
      </trkpt>
      <trkpt lat="44.70642" lon="6.6192">
        <ele>1181</ele>
        <time>2011-08-08T11:58:06Z</time>
      </trkpt>
      <trkpt lat="44.70658" lon="6.61915">
        <ele>1184</ele>
        <time>2011-08-08T11:58:12Z</time>
      </trkpt>
      <trkpt lat="44.70658" lon="6.61892">
        <ele>1178</ele>
        <time>2011-08-08T11:58:20Z</time>
      </trkpt>
      <trkpt lat="44.70652" lon="6.6187">
        <ele>1172</ele>
        <time>2011-08-08T11:58:26Z</time>
      </trkpt>
      <trkpt lat="44.70657" lon="6.61852">
        <ele>1170</ele>
        <time>2011-08-08T11:58:30Z</time>
      </trkpt>
      <trkpt lat="44.70668" lon="6.6184">
        <ele>1173</ele>
        <time>2011-08-08T11:58:34Z</time>
      </trkpt>
      <trkpt lat="44.70683" lon="6.61843">
        <ele>1181</ele>
        <time>2011-08-08T11:58:40Z</time>
      </trkpt>
      <trkpt lat="44.70697" lon="6.61822">
        <ele>1178</ele>
        <time>2011-08-08T11:58:47Z</time>
      </trkpt>
      <trkpt lat="44.70707" lon="6.61798">
        <ele>1173</ele>
        <time>2011-08-08T11:58:53Z</time>
      </trkpt>
      <trkpt lat="44.70722" lon="6.61805">
        <ele>1176</ele>
        <time>2011-08-08T11:59:01Z</time>
      </trkpt>
      <trkpt lat="44.70733" lon="6.6182">
        <ele>1184</ele>
        <time>2011-08-08T11:59:08Z</time>
      </trkpt>
      <trkpt lat="44.70747" lon="6.61832">
        <ele>1190</ele>
        <time>2011-08-08T11:59:14Z</time>
      </trkpt>
      <trkpt lat="44.70763" lon="6.61835">
        <ele>1191</ele>
        <time>2011-08-08T11:59:20Z</time>
      </trkpt>
      <trkpt lat="44.70778" lon="6.61827">
        <ele>1185</ele>
        <time>2011-08-08T11:59:24Z</time>
      </trkpt>
      <trkpt lat="44.70792" lon="6.61823">
        <ele>1181</ele>
        <time>2011-08-08T11:59:28Z</time>
      </trkpt>
      <trkpt lat="44.70807" lon="6.61822">
        <ele>1181</ele>
        <time>2011-08-08T11:59:34Z</time>
      </trkpt>
      <trkpt lat="44.70818" lon="6.6181">
        <ele>1177</ele>
        <time>2011-08-08T11:59:43Z</time>
      </trkpt>
      <trkpt lat="44.70835" lon="6.61813">
        <ele>1180</ele>
        <time>2011-08-08T11:59:51Z</time>
      </trkpt>
      <trkpt lat="44.70845" lon="6.61797">
        <ele>1175</ele>
        <time>2011-08-08T11:59:57Z</time>
      </trkpt>
      <trkpt lat="44.70853" lon="6.61775">
        <ele>1176</ele>
        <time>2011-08-08T12:00:04Z</time>
      </trkpt>
      <trkpt lat="44.7087" lon="6.6177">
        <ele>1182</ele>
        <time>2011-08-08T12:00:10Z</time>
      </trkpt>
      <trkpt lat="44.70867" lon="6.6175">
        <ele>1178</ele>
        <time>2011-08-08T12:00:20Z</time>
      </trkpt>
      <trkpt lat="44.70853" lon="6.61738">
        <ele>1170</ele>
        <time>2011-08-08T12:00:27Z</time>
      </trkpt>
      <trkpt lat="44.70848" lon="6.61718">
        <ele>1168</ele>
        <time>2011-08-08T12:00:33Z</time>
      </trkpt>
      <trkpt lat="44.70853" lon="6.61688">
        <ele>1171</ele>
        <time>2011-08-08T12:00:39Z</time>
      </trkpt>
      <trkpt lat="44.70862" lon="6.6167">
        <ele>1174</ele>
        <time>2011-08-08T12:00:45Z</time>
      </trkpt>
      <trkpt lat="44.70868" lon="6.61648">
        <ele>1175</ele>
        <time>2011-08-08T12:00:52Z</time>
      </trkpt>
      <trkpt lat="44.70872" lon="6.61625">
        <ele>1173</ele>
        <time>2011-08-08T12:00:58Z</time>
      </trkpt>
      <trkpt lat="44.70882" lon="6.61605">
        <ele>1173</ele>
        <time>2011-08-08T12:01:04Z</time>
      </trkpt>
      <trkpt lat="44.70895" lon="6.61598">
        <ele>1175</ele>
        <time>2011-08-08T12:01:08Z</time>
      </trkpt>
      <trkpt lat="44.70908" lon="6.6159">
        <ele>1178</ele>
        <time>2011-08-08T12:01:16Z</time>
      </trkpt>
      <trkpt lat="44.70925" lon="6.61587">
        <ele>1185</ele>
        <time>2011-08-08T12:02:49Z</time>
      </trkpt>
      <trkpt lat="44.70927" lon="6.61567">
        <ele>1180</ele>
        <time>2011-08-08T12:02:57Z</time>
      </trkpt>
      <trkpt lat="44.7092" lon="6.61548">
        <ele>1173</ele>
        <time>2011-08-08T12:03:03Z</time>
      </trkpt>
      <trkpt lat="44.70915" lon="6.61528">
        <ele>1169</ele>
        <time>2011-08-08T12:03:12Z</time>
      </trkpt>
      <trkpt lat="44.70917" lon="6.61503">
        <ele>1169</ele>
        <time>2011-08-08T12:04:16Z</time>
      </trkpt>
      <trkpt lat="44.70925" lon="6.61453">
        <ele>1165</ele>
        <time>2011-08-08T12:04:24Z</time>
      </trkpt>
      <trkpt lat="44.70917" lon="6.61435">
        <ele>1158</ele>
        <time>2011-08-08T12:04:30Z</time>
      </trkpt>
      <trkpt lat="44.70903" lon="6.61453">
        <ele>1156</ele>
        <time>2011-08-08T12:04:34Z</time>
      </trkpt>
      <trkpt lat="44.70887" lon="6.61467">
        <ele>1151</ele>
        <time>2011-08-08T12:04:39Z</time>
      </trkpt>
      <trkpt lat="44.70882" lon="6.61445">
        <ele>1145</ele>
        <time>2011-08-08T12:04:49Z</time>
      </trkpt>
      <trkpt lat="44.70868" lon="6.61452">
        <ele>1139</ele>
        <time>2011-08-08T12:04:59Z</time>
      </trkpt>
      <trkpt lat="44.70872" lon="6.61423">
        <ele>1138</ele>
        <time>2011-08-08T12:06:17Z</time>
      </trkpt>
      <trkpt lat="44.7085" lon="6.61427">
        <ele>1129</ele>
        <time>2011-08-08T12:06:34Z</time>
      </trkpt>
      <trkpt lat="44.70838" lon="6.6144">
        <ele>1124</ele>
        <time>2011-08-08T12:06:40Z</time>
      </trkpt>
      <trkpt lat="44.70835" lon="6.61408">
        <ele>1119</ele>
        <time>2011-08-08T12:06:48Z</time>
      </trkpt>
      <trkpt lat="44.70822" lon="6.61403">
        <ele>1112</ele>
        <time>2011-08-08T12:06:56Z</time>
      </trkpt>
      <trkpt lat="44.70808" lon="6.6142">
        <ele>1107</ele>
        <time>2011-08-08T12:07:00Z</time>
      </trkpt>
      <trkpt lat="44.70797" lon="6.6141">
        <ele>1100</ele>
        <time>2011-08-08T12:07:12Z</time>
      </trkpt>
      <trkpt lat="44.70788" lon="6.61395">
        <ele>1094</ele>
        <time>2011-08-08T12:07:21Z</time>
      </trkpt>
      <trkpt lat="44.70788" lon="6.61375">
        <ele>1092</ele>
        <time>2011-08-08T12:07:25Z</time>
      </trkpt>
      <trkpt lat="44.70773" lon="6.6138">
        <ele>1085</ele>
        <time>2011-08-08T12:07:31Z</time>
      </trkpt>
      <trkpt lat="44.70767" lon="6.6136">
        <ele>1082</ele>
        <time>2011-08-08T12:07:39Z</time>
      </trkpt>
      <trkpt lat="44.7076" lon="6.6138">
        <ele>1078</ele>
        <time>2011-08-08T12:09:22Z</time>
      </trkpt>
      <trkpt lat="44.70763" lon="6.61407">
        <ele>1080</ele>
        <time>2011-08-08T12:09:26Z</time>
      </trkpt>
      <trkpt lat="44.70763" lon="6.6143">
        <ele>1083</ele>
        <time>2011-08-08T12:09:30Z</time>
      </trkpt>
      <trkpt lat="44.70752" lon="6.61408">
        <ele>1073</ele>
        <time>2011-08-08T12:09:43Z</time>
      </trkpt>
      <trkpt lat="44.70742" lon="6.6139">
        <ele>1067</ele>
        <time>2011-08-08T12:09:47Z</time>
      </trkpt>
      <trkpt lat="44.70728" lon="6.61375">
        <ele>1059</ele>
        <time>2011-08-08T12:09:51Z</time>
      </trkpt>
      <trkpt lat="44.70722" lon="6.61357">
        <ele>1054</ele>
        <time>2011-08-08T12:09:57Z</time>
      </trkpt>
      <trkpt lat="44.7073" lon="6.61342">
        <ele>1056</ele>
        <time>2011-08-08T12:10:01Z</time>
      </trkpt>
      <trkpt lat="44.70738" lon="6.61327">
        <ele>1055</ele>
        <time>2011-08-08T12:10:06Z</time>
      </trkpt>
      <trkpt lat="44.70747" lon="6.61312">
        <ele>1054</ele>
        <time>2011-08-08T12:10:10Z</time>
      </trkpt>
      <trkpt lat="44.70763" lon="6.61295">
        <ele>1054</ele>
        <time>2011-08-08T12:10:16Z</time>
      </trkpt>
      <trkpt lat="44.70777" lon="6.61275">
        <ele>1049</ele>
        <time>2011-08-08T12:10:20Z</time>
      </trkpt>
      <trkpt lat="44.70785" lon="6.61257">
        <ele>1043</ele>
        <time>2011-08-08T12:10:24Z</time>
      </trkpt>
      <trkpt lat="44.70795" lon="6.61228">
        <ele>1030</ele>
        <time>2011-08-08T12:10:32Z</time>
      </trkpt>
      <trkpt lat="44.70778" lon="6.6123">
        <ele>1027</ele>
        <time>2011-08-08T12:10:41Z</time>
      </trkpt>
      <trkpt lat="44.7076" lon="6.6123">
        <ele>1023</ele>
        <time>2011-08-08T12:10:51Z</time>
      </trkpt>
      <trkpt lat="44.70747" lon="6.6122">
        <ele>1017</ele>
        <time>2011-08-08T12:11:54Z</time>
      </trkpt>
      <trkpt lat="44.70732" lon="6.61205">
        <ele>1009</ele>
        <time>2011-08-08T12:12:00Z</time>
      </trkpt>
      <trkpt lat="44.70718" lon="6.61202">
        <ele>1004</ele>
        <time>2011-08-08T12:12:06Z</time>
      </trkpt>
      <trkpt lat="44.70707" lon="6.61217">
        <ele>1006</ele>
        <time>2011-08-08T12:12:27Z</time>
      </trkpt>
      <trkpt lat="44.7069" lon="6.61208">
        <ele>999</ele>
        <time>2011-08-08T12:12:33Z</time>
      </trkpt>
      <trkpt lat="44.70675" lon="6.61207">
        <ele>993</ele>
        <time>2011-08-08T12:12:37Z</time>
      </trkpt>
      <trkpt lat="44.70652" lon="6.61203">
        <ele>982</ele>
        <time>2011-08-08T12:12:43Z</time>
      </trkpt>
      <trkpt lat="44.70632" lon="6.6121">
        <ele>976</ele>
        <time>2011-08-08T12:12:53Z</time>
      </trkpt>
      <trkpt lat="44.70615" lon="6.6122">
        <ele>972</ele>
        <time>2011-08-08T12:12:58Z</time>
      </trkpt>
      <trkpt lat="44.70593" lon="6.61237">
        <ele>968</ele>
        <time>2011-08-08T12:13:02Z</time>
      </trkpt>
      <trkpt lat="44.70573" lon="6.61253">
        <ele>967</ele>
        <time>2011-08-08T12:13:06Z</time>
      </trkpt>
      <trkpt lat="44.70542" lon="6.61282">
        <ele>964</ele>
        <time>2011-08-08T12:13:14Z</time>
      </trkpt>
      <trkpt lat="44.70527" lon="6.61288">
        <ele>963</ele>
        <time>2011-08-08T12:13:40Z</time>
      </trkpt>
      <trkpt lat="44.70512" lon="6.61287">
        <ele>960</ele>
        <time>2011-08-08T12:13:44Z</time>
      </trkpt>
      <trkpt lat="44.70497" lon="6.61273">
        <ele>956</ele>
        <time>2011-08-08T12:13:49Z</time>
      </trkpt>
      <trkpt lat="44.70478" lon="6.61255">
        <ele>953</ele>
        <time>2011-08-08T12:13:53Z</time>
      </trkpt>
      <trkpt lat="44.7046" lon="6.6124">
        <ele>950</ele>
        <time>2011-08-08T12:13:57Z</time>
      </trkpt>
      <trkpt lat="44.70445" lon="6.61222">
        <ele>948</ele>
        <time>2011-08-08T12:14:01Z</time>
      </trkpt>
      <trkpt lat="44.70432" lon="6.6123">
        <ele>948</ele>
        <time>2011-08-08T12:16:24Z</time>
      </trkpt>
      <trkpt lat="44.70425" lon="6.6125">
        <ele>949</ele>
        <time>2011-08-08T12:16:30Z</time>
      </trkpt>
      <trkpt lat="44.7042" lon="6.61277">
        <ele>952</ele>
        <time>2011-08-08T12:16:38Z</time>
      </trkpt>
      <trkpt lat="44.70407" lon="6.61292">
        <ele>954</ele>
        <time>2011-08-08T12:16:46Z</time>
      </trkpt>
      <trkpt lat="44.70392" lon="6.61292">
        <ele>955</ele>
        <time>2011-08-08T12:16:55Z</time>
      </trkpt>
      <trkpt lat="44.70377" lon="6.61292">
        <ele>956</ele>
        <time>2011-08-08T12:17:01Z</time>
      </trkpt>
      <trkpt lat="44.70358" lon="6.61292">
        <ele>956</ele>
        <time>2011-08-08T12:17:09Z</time>
      </trkpt>
      <trkpt lat="44.7034" lon="6.61295">
        <ele>957</ele>
        <time>2011-08-08T12:17:18Z</time>
      </trkpt>
      <trkpt lat="44.70325" lon="6.61307">
        <ele>959</ele>
        <time>2011-08-08T12:17:26Z</time>
      </trkpt>
      <trkpt lat="44.70313" lon="6.61318">
        <ele>961</ele>
        <time>2011-08-08T12:17:32Z</time>
      </trkpt>
      <trkpt lat="44.70295" lon="6.6134">
        <ele>964</ele>
        <time>2011-08-08T12:17:45Z</time>
      </trkpt>
      <trkpt lat="44.70282" lon="6.61353">
        <ele>967</ele>
        <time>2011-08-08T12:17:53Z</time>
      </trkpt>
      <trkpt lat="44.7027" lon="6.61372">
        <ele>971</ele>
        <time>2011-08-08T12:18:01Z</time>
      </trkpt>
      <trkpt lat="44.7026" lon="6.61388">
        <ele>975</ele>
        <time>2011-08-08T12:18:09Z</time>
      </trkpt>
      <trkpt lat="44.70247" lon="6.61393">
        <ele>975</ele>
        <time>2011-08-08T12:18:15Z</time>
      </trkpt>
      <trkpt lat="44.70232" lon="6.61383">
        <ele>973</ele>
        <time>2011-08-08T12:18:24Z</time>
      </trkpt>
      <trkpt lat="44.70217" lon="6.61375">
        <ele>970</ele>
        <time>2011-08-08T12:18:32Z</time>
      </trkpt>
      <trkpt lat="44.70203" lon="6.61383">
        <ele>971</ele>
        <time>2011-08-08T12:18:40Z</time>
      </trkpt>
      <trkpt lat="44.70192" lon="6.61398">
        <ele>974</ele>
        <time>2011-08-08T12:18:51Z</time>
      </trkpt>
      <trkpt lat="44.70178" lon="6.61412">
        <ele>976</ele>
        <time>2011-08-08T12:19:03Z</time>
      </trkpt>
      <trkpt lat="44.70165" lon="6.61425">
        <ele>977</ele>
        <time>2011-08-08T12:19:13Z</time>
      </trkpt>
      <trkpt lat="44.70157" lon="6.61443">
        <ele>980</ele>
        <time>2011-08-08T12:19:23Z</time>
      </trkpt>
      <trkpt lat="44.70152" lon="6.61465">
        <ele>983</ele>
        <time>2011-08-08T12:19:34Z</time>
      </trkpt>
      <trkpt lat="44.70145" lon="6.61488">
        <ele>987</ele>
        <time>2011-08-08T12:19:46Z</time>
      </trkpt>
      <trkpt lat="44.70128" lon="6.61543">
        <ele>992</ele>
        <time>2011-08-08T12:20:09Z</time>
      </trkpt>
      <trkpt lat="44.70118" lon="6.61558">
        <ele>993</ele>
        <time>2011-08-08T12:20:17Z</time>
      </trkpt>
      <trkpt lat="44.70105" lon="6.61553">
        <ele>991</ele>
        <time>2011-08-08T12:20:23Z</time>
      </trkpt>
      <trkpt lat="44.70092" lon="6.61545">
        <ele>989</ele>
        <time>2011-08-08T12:20:31Z</time>
      </trkpt>
      <trkpt lat="44.70078" lon="6.61555">
        <ele>989</ele>
        <time>2011-08-08T12:20:40Z</time>
      </trkpt>
      <trkpt lat="44.7007" lon="6.61573">
        <ele>993</ele>
        <time>2011-08-08T12:20:48Z</time>
      </trkpt>
      <trkpt lat="44.70063" lon="6.61595">
        <ele>997</ele>
        <time>2011-08-08T12:20:56Z</time>
      </trkpt>
      <trkpt lat="44.70053" lon="6.61613">
        <ele>1000</ele>
        <time>2011-08-08T12:21:06Z</time>
      </trkpt>
      <trkpt lat="44.70038" lon="6.61623">
        <ele>1002</ele>
        <time>2011-08-08T12:21:17Z</time>
      </trkpt>
      <trkpt lat="44.70023" lon="6.61622">
        <ele>1001</ele>
        <time>2011-08-08T12:21:25Z</time>
      </trkpt>
      <trkpt lat="44.70007" lon="6.61622">
        <ele>1001</ele>
        <time>2011-08-08T12:21:35Z</time>
      </trkpt>
      <trkpt lat="44.69993" lon="6.61625">
        <ele>1001</ele>
        <time>2011-08-08T12:21:44Z</time>
      </trkpt>
      <trkpt lat="44.69978" lon="6.61638">
        <ele>1003</ele>
        <time>2011-08-08T12:21:52Z</time>
      </trkpt>
      <trkpt lat="44.6997" lon="6.61655">
        <ele>1005</ele>
        <time>2011-08-08T12:22:00Z</time>
      </trkpt>
      <trkpt lat="44.69965" lon="6.61677">
        <ele>1009</ele>
        <time>2011-08-08T12:22:08Z</time>
      </trkpt>
      <trkpt lat="44.6996" lon="6.61697">
        <ele>1012</ele>
        <time>2011-08-08T12:22:17Z</time>
      </trkpt>
      <trkpt lat="44.69948" lon="6.61707">
        <ele>1013</ele>
        <time>2011-08-08T12:22:25Z</time>
      </trkpt>
      <trkpt lat="44.69933" lon="6.6171">
        <ele>1012</ele>
        <time>2011-08-08T12:22:33Z</time>
      </trkpt>
      <trkpt lat="44.69917" lon="6.61715">
        <ele>1012</ele>
        <time>2011-08-08T12:22:41Z</time>
      </trkpt>
      <trkpt lat="44.69903" lon="6.61723">
        <ele>1013</ele>
        <time>2011-08-08T12:22:49Z</time>
      </trkpt>
      <trkpt lat="44.69892" lon="6.61735">
        <ele>1013</ele>
        <time>2011-08-08T12:22:58Z</time>
      </trkpt>
      <trkpt lat="44.6988" lon="6.61748">
        <ele>1014</ele>
        <time>2011-08-08T12:23:06Z</time>
      </trkpt>
      <trkpt lat="44.69867" lon="6.61762">
        <ele>1014</ele>
        <time>2011-08-08T12:23:14Z</time>
      </trkpt>
      <trkpt lat="44.69857" lon="6.61777">
        <ele>1015</ele>
        <time>2011-08-08T12:23:22Z</time>
      </trkpt>
      <trkpt lat="44.69842" lon="6.61788">
        <ele>1015</ele>
        <time>2011-08-08T12:23:31Z</time>
      </trkpt>
      <trkpt lat="44.69827" lon="6.61795">
        <ele>1013</ele>
        <time>2011-08-08T12:23:39Z</time>
      </trkpt>
      <trkpt lat="44.69813" lon="6.61807">
        <ele>1011</ele>
        <time>2011-08-08T12:23:47Z</time>
      </trkpt>
      <trkpt lat="44.69818" lon="6.61827">
        <ele>1013</ele>
        <time>2011-08-08T12:23:57Z</time>
      </trkpt>
      <trkpt lat="44.69833" lon="6.61828">
        <ele>1016</ele>
        <time>2011-08-08T12:24:06Z</time>
      </trkpt>
      <trkpt lat="44.69853" lon="6.6183">
        <ele>1019</ele>
        <time>2011-08-08T12:24:16Z</time>
      </trkpt>
      <trkpt lat="44.69868" lon="6.61833">
        <ele>1022</ele>
        <time>2011-08-08T12:24:25Z</time>
      </trkpt>
      <trkpt lat="44.69883" lon="6.61842">
        <ele>1025</ele>
        <time>2011-08-08T12:24:33Z</time>
      </trkpt>
      <trkpt lat="44.69897" lon="6.61852">
        <ele>1028</ele>
        <time>2011-08-08T12:24:41Z</time>
      </trkpt>
      <trkpt lat="44.6991" lon="6.61858">
        <ele>1032</ele>
        <time>2011-08-08T12:24:49Z</time>
      </trkpt>
      <trkpt lat="44.69928" lon="6.61862">
        <ele>1036</ele>
        <time>2011-08-08T12:26:29Z</time>
      </trkpt>
      <trkpt lat="44.69945" lon="6.61863">
        <ele>1039</ele>
        <time>2011-08-08T12:26:38Z</time>
      </trkpt>
      <trkpt lat="44.69962" lon="6.6186">
        <ele>1040</ele>
        <time>2011-08-08T12:26:46Z</time>
      </trkpt>
      <trkpt lat="44.69975" lon="6.61855">
        <ele>1040</ele>
        <time>2011-08-08T12:26:52Z</time>
      </trkpt>
      <trkpt lat="44.69988" lon="6.61847">
        <ele>1040</ele>
        <time>2011-08-08T12:26:58Z</time>
      </trkpt>
      <trkpt lat="44.70005" lon="6.6184">
        <ele>1041</ele>
        <time>2011-08-08T12:27:06Z</time>
      </trkpt>
      <trkpt lat="44.7002" lon="6.61833">
        <ele>1042</ele>
        <time>2011-08-08T12:27:15Z</time>
      </trkpt>
      <trkpt lat="44.70035" lon="6.61828">
        <ele>1042</ele>
        <time>2011-08-08T12:27:21Z</time>
      </trkpt>
      <trkpt lat="44.7005" lon="6.61827">
        <ele>1043</ele>
        <time>2011-08-08T12:27:29Z</time>
      </trkpt>
      <trkpt lat="44.70067" lon="6.6183">
        <ele>1045</ele>
        <time>2011-08-08T12:27:37Z</time>
      </trkpt>
      <trkpt lat="44.70078" lon="6.61843">
        <ele>1048</ele>
        <time>2011-08-08T12:27:46Z</time>
      </trkpt>
      <trkpt lat="44.70062" lon="6.61853">
        <ele>1048</ele>
        <time>2011-08-08T12:27:54Z</time>
      </trkpt>
      <trkpt lat="44.70047" lon="6.61858">
        <ele>1048</ele>
        <time>2011-08-08T12:28:01Z</time>
      </trkpt>
      <trkpt lat="44.70032" lon="6.61868">
        <ele>1048</ele>
        <time>2011-08-08T12:28:07Z</time>
      </trkpt>
      <trkpt lat="44.70007" lon="6.61883">
        <ele>1048</ele>
        <time>2011-08-08T12:28:17Z</time>
      </trkpt>
      <trkpt lat="44.69992" lon="6.61893">
        <ele>1048</ele>
        <time>2011-08-08T12:28:23Z</time>
      </trkpt>
      <trkpt lat="44.69975" lon="6.6191">
        <ele>1050</ele>
        <time>2011-08-08T12:28:31Z</time>
      </trkpt>
      <trkpt lat="44.69958" lon="6.61922">
        <ele>1050</ele>
        <time>2011-08-08T12:28:39Z</time>
      </trkpt>
      <trkpt lat="44.69943" lon="6.61933">
        <ele>1049</ele>
        <time>2011-08-08T12:28:48Z</time>
      </trkpt>
      <trkpt lat="44.69937" lon="6.61955">
        <ele>1050</ele>
        <time>2011-08-08T12:28:56Z</time>
      </trkpt>
      <trkpt lat="44.69948" lon="6.61967">
        <ele>1052</ele>
        <time>2011-08-08T12:29:06Z</time>
      </trkpt>
      <trkpt lat="44.6995" lon="6.61987">
        <ele>1054</ele>
        <time>2011-08-08T12:30:03Z</time>
      </trkpt>
      <trkpt lat="44.69952" lon="6.62015">
        <ele>1054</ele>
        <time>2011-08-08T12:30:07Z</time>
      </trkpt>
      <trkpt lat="44.69942" lon="6.62038">
        <ele>1051</ele>
        <time>2011-08-08T12:30:11Z</time>
      </trkpt>
      <trkpt lat="44.69937" lon="6.62068">
        <ele>1055</ele>
        <time>2011-08-08T12:30:16Z</time>
      </trkpt>
      <trkpt lat="44.69923" lon="6.62082">
        <ele>1056</ele>
        <time>2011-08-08T12:30:20Z</time>
      </trkpt>
      <trkpt lat="44.69908" lon="6.62073">
        <ele>1054</ele>
        <time>2011-08-08T12:30:24Z</time>
      </trkpt>
      <trkpt lat="44.69872" lon="6.62055">
        <ele>1049</ele>
        <time>2011-08-08T12:30:32Z</time>
      </trkpt>
      <trkpt lat="44.69855" lon="6.62045">
        <ele>1048</ele>
        <time>2011-08-08T12:30:36Z</time>
      </trkpt>
      <trkpt lat="44.69837" lon="6.6204">
        <ele>1048</ele>
        <time>2011-08-08T12:30:40Z</time>
      </trkpt>
      <trkpt lat="44.6982" lon="6.62038">
        <ele>1047</ele>
        <time>2011-08-08T12:30:42Z</time>
      </trkpt>
      <trkpt lat="44.69798" lon="6.62037">
        <ele>1047</ele>
        <time>2011-08-08T12:30:46Z</time>
      </trkpt>
      <trkpt lat="44.6978" lon="6.62045">
        <ele>1047</ele>
        <time>2011-08-08T12:30:50Z</time>
      </trkpt>
      <trkpt lat="44.69763" lon="6.62062">
        <ele>1048</ele>
        <time>2011-08-08T12:30:54Z</time>
      </trkpt>
      <trkpt lat="44.69747" lon="6.62077">
        <ele>1048</ele>
        <time>2011-08-08T12:30:59Z</time>
      </trkpt>
      <trkpt lat="44.69732" lon="6.62097">
        <ele>1046</ele>
        <time>2011-08-08T12:31:03Z</time>
      </trkpt>
      <trkpt lat="44.69732" lon="6.6213">
        <ele>1046</ele>
        <time>2011-08-08T12:31:07Z</time>
      </trkpt>
      <trkpt lat="44.69728" lon="6.6215">
        <ele>1045</ele>
        <time>2011-08-08T12:31:09Z</time>
      </trkpt>
      <trkpt lat="44.69727" lon="6.6217">
        <ele>1045</ele>
        <time>2011-08-08T12:31:11Z</time>
      </trkpt>
      <trkpt lat="44.69727" lon="6.6219">
        <ele>1046</ele>
        <time>2011-08-08T12:31:13Z</time>
      </trkpt>
      <trkpt lat="44.69732" lon="6.62208">
        <ele>1048</ele>
        <time>2011-08-08T12:31:15Z</time>
      </trkpt>
      <trkpt lat="44.69723" lon="6.62227">
        <ele>1048</ele>
        <time>2011-08-08T12:31:19Z</time>
      </trkpt>
      <trkpt lat="44.69707" lon="6.62217">
        <ele>1043</ele>
        <time>2011-08-08T12:31:21Z</time>
      </trkpt>
      <trkpt lat="44.69682" lon="6.6222">
        <ele>1040</ele>
        <time>2011-08-08T12:31:25Z</time>
      </trkpt>
      <trkpt lat="44.69667" lon="6.6225">
        <ele>1043</ele>
        <time>2011-08-08T12:31:29Z</time>
      </trkpt>
      <trkpt lat="44.69643" lon="6.62267">
        <ele>1045</ele>
        <time>2011-08-08T12:31:34Z</time>
      </trkpt>
      <trkpt lat="44.69627" lon="6.62272">
        <ele>1046</ele>
        <time>2011-08-08T12:31:38Z</time>
      </trkpt>
      <trkpt lat="44.69612" lon="6.62272">
        <ele>1046</ele>
        <time>2011-08-08T12:31:42Z</time>
      </trkpt>
      <trkpt lat="44.69598" lon="6.62268">
        <ele>1046</ele>
        <time>2011-08-08T12:31:46Z</time>
      </trkpt>
      <trkpt lat="44.69583" lon="6.6226">
        <ele>1046</ele>
        <time>2011-08-08T12:31:50Z</time>
      </trkpt>
      <trkpt lat="44.69567" lon="6.62247">
        <ele>1044</ele>
        <time>2011-08-08T12:31:56Z</time>
      </trkpt>
      <trkpt lat="44.6955" lon="6.62247">
        <ele>1045</ele>
        <time>2011-08-08T12:32:02Z</time>
      </trkpt>
      <trkpt lat="44.69535" lon="6.62253">
        <ele>1046</ele>
        <time>2011-08-08T12:32:53Z</time>
      </trkpt>
      <trkpt lat="44.69523" lon="6.62263">
        <ele>1049</ele>
        <time>2011-08-08T12:32:59Z</time>
      </trkpt>
      <trkpt lat="44.69512" lon="6.62278">
        <ele>1051</ele>
        <time>2011-08-08T12:33:06Z</time>
      </trkpt>
      <trkpt lat="44.69498" lon="6.62292">
        <ele>1052</ele>
        <time>2011-08-08T12:33:12Z</time>
      </trkpt>
      <trkpt lat="44.6948" lon="6.62312">
        <ele>1052</ele>
        <time>2011-08-08T12:33:20Z</time>
      </trkpt>
      <trkpt lat="44.69463" lon="6.62325">
        <ele>1052</ele>
        <time>2011-08-08T12:33:26Z</time>
      </trkpt>
      <trkpt lat="44.69448" lon="6.62335">
        <ele>1050</ele>
        <time>2011-08-08T12:33:32Z</time>
      </trkpt>
      <trkpt lat="44.69435" lon="6.62345">
        <ele>1048</ele>
        <time>2011-08-08T12:33:39Z</time>
      </trkpt>
      <trkpt lat="44.69428" lon="6.62363">
        <ele>1048</ele>
        <time>2011-08-08T12:33:45Z</time>
      </trkpt>
      <trkpt lat="44.69432" lon="6.62383">
        <ele>1050</ele>
        <time>2011-08-08T12:33:51Z</time>
      </trkpt>
      <trkpt lat="44.6944" lon="6.62403">
        <ele>1054</ele>
        <time>2011-08-08T12:33:57Z</time>
      </trkpt>
      <trkpt lat="44.69445" lon="6.62422">
        <ele>1057</ele>
        <time>2011-08-08T12:34:03Z</time>
      </trkpt>
      <trkpt lat="44.6945" lon="6.62442">
        <ele>1060</ele>
        <time>2011-08-08T12:34:09Z</time>
      </trkpt>
      <trkpt lat="44.69463" lon="6.6249">
        <ele>1062</ele>
        <time>2011-08-08T12:34:26Z</time>
      </trkpt>
      <trkpt lat="44.69478" lon="6.62503">
        <ele>1065</ele>
        <time>2011-08-08T12:34:34Z</time>
      </trkpt>
      <trkpt lat="44.69492" lon="6.6252">
        <ele>1067</ele>
        <time>2011-08-08T12:34:42Z</time>
      </trkpt>
      <trkpt lat="44.69503" lon="6.62533">
        <ele>1068</ele>
        <time>2011-08-08T12:34:48Z</time>
      </trkpt>
      <trkpt lat="44.69518" lon="6.6255">
        <ele>1069</ele>
        <time>2011-08-08T12:34:57Z</time>
      </trkpt>
      <trkpt lat="44.6953" lon="6.62563">
        <ele>1070</ele>
        <time>2011-08-08T12:35:07Z</time>
      </trkpt>
      <trkpt lat="44.6955" lon="6.62588">
        <ele>1072</ele>
        <time>2011-08-08T12:35:20Z</time>
      </trkpt>
      <trkpt lat="44.69558" lon="6.62605">
        <ele>1072</ele>
        <time>2011-08-08T12:35:26Z</time>
      </trkpt>
      <trkpt lat="44.69567" lon="6.62623">
        <ele>1072</ele>
        <time>2011-08-08T12:35:32Z</time>
      </trkpt>
      <trkpt lat="44.69573" lon="6.6264">
        <ele>1072</ele>
        <time>2011-08-08T12:35:38Z</time>
      </trkpt>
      <trkpt lat="44.69582" lon="6.62665">
        <ele>1072</ele>
        <time>2011-08-08T12:35:47Z</time>
      </trkpt>
      <trkpt lat="44.69585" lon="6.62685">
        <ele>1073</ele>
        <time>2011-08-08T12:35:51Z</time>
      </trkpt>
      <trkpt lat="44.69587" lon="6.62705">
        <ele>1073</ele>
        <time>2011-08-08T12:35:55Z</time>
      </trkpt>
      <trkpt lat="44.69573" lon="6.6271">
        <ele>1071</ele>
        <time>2011-08-08T12:36:03Z</time>
      </trkpt>
      <trkpt lat="44.69557" lon="6.62708">
        <ele>1069</ele>
        <time>2011-08-08T12:36:40Z</time>
      </trkpt>
      <trkpt lat="44.69543" lon="6.627">
        <ele>1067</ele>
        <time>2011-08-08T12:36:49Z</time>
      </trkpt>
      <trkpt lat="44.69528" lon="6.62698">
        <ele>1065</ele>
        <time>2011-08-08T12:36:55Z</time>
      </trkpt>
      <trkpt lat="44.69515" lon="6.62705">
        <ele>1065</ele>
        <time>2011-08-08T12:37:01Z</time>
      </trkpt>
      <trkpt lat="44.69503" lon="6.62715">
        <ele>1066</ele>
        <time>2011-08-08T12:37:08Z</time>
      </trkpt>
      <trkpt lat="44.69492" lon="6.62732">
        <ele>1069</ele>
        <time>2011-08-08T12:37:14Z</time>
      </trkpt>
      <trkpt lat="44.69478" lon="6.6275">
        <ele>1071</ele>
        <time>2011-08-08T12:37:20Z</time>
      </trkpt>
      <trkpt lat="44.69465" lon="6.62755">
        <ele>1072</ele>
        <time>2011-08-08T12:37:24Z</time>
      </trkpt>
      <trkpt lat="44.69452" lon="6.62758">
        <ele>1072</ele>
        <time>2011-08-08T12:37:29Z</time>
      </trkpt>
      <trkpt lat="44.69437" lon="6.62762">
        <ele>1073</ele>
        <time>2011-08-08T12:37:33Z</time>
      </trkpt>
      <trkpt lat="44.6942" lon="6.6276">
        <ele>1074</ele>
        <time>2011-08-08T12:37:37Z</time>
      </trkpt>
      <trkpt lat="44.69403" lon="6.62762">
        <ele>1075</ele>
        <time>2011-08-08T12:37:41Z</time>
      </trkpt>
      <trkpt lat="44.69388" lon="6.6276">
        <ele>1076</ele>
        <time>2011-08-08T12:37:46Z</time>
      </trkpt>
      <trkpt lat="44.69375" lon="6.62755">
        <ele>1075</ele>
        <time>2011-08-08T12:37:50Z</time>
      </trkpt>
      <trkpt lat="44.69357" lon="6.62745">
        <ele>1075</ele>
        <time>2011-08-08T12:37:54Z</time>
      </trkpt>
      <trkpt lat="44.69342" lon="6.62733">
        <ele>1075</ele>
        <time>2011-08-08T12:37:58Z</time>
      </trkpt>
      <trkpt lat="44.69328" lon="6.6272">
        <ele>1074</ele>
        <time>2011-08-08T12:38:02Z</time>
      </trkpt>
      <trkpt lat="44.69315" lon="6.62702">
        <ele>1072</ele>
        <time>2011-08-08T12:38:07Z</time>
      </trkpt>
      <trkpt lat="44.69303" lon="6.62678">
        <ele>1070</ele>
        <time>2011-08-08T12:38:11Z</time>
      </trkpt>
      <trkpt lat="44.69293" lon="6.62662">
        <ele>1069</ele>
        <time>2011-08-08T12:38:15Z</time>
      </trkpt>
      <trkpt lat="44.6928" lon="6.6264">
        <ele>1067</ele>
        <time>2011-08-08T12:38:19Z</time>
      </trkpt>
      <trkpt lat="44.6926" lon="6.62607">
        <ele>1060</ele>
        <time>2011-08-08T12:38:28Z</time>
      </trkpt>
      <trkpt lat="44.6925" lon="6.62593">
        <ele>1057</ele>
        <time>2011-08-08T12:38:32Z</time>
      </trkpt>
      <trkpt lat="44.69232" lon="6.62583">
        <ele>1057</ele>
        <time>2011-08-08T12:38:36Z</time>
      </trkpt>
      <trkpt lat="44.69207" lon="6.6257">
        <ele>1055</ele>
        <time>2011-08-08T12:38:40Z</time>
      </trkpt>
      <trkpt lat="44.69193" lon="6.62565">
        <ele>1055</ele>
        <time>2011-08-08T12:38:42Z</time>
      </trkpt>
      <trkpt lat="44.69178" lon="6.62568">
        <ele>1056</ele>
        <time>2011-08-08T12:38:44Z</time>
      </trkpt>
      <trkpt lat="44.69165" lon="6.62575">
        <ele>1057</ele>
        <time>2011-08-08T12:38:46Z</time>
      </trkpt>
      <trkpt lat="44.69148" lon="6.62588">
        <ele>1060</ele>
        <time>2011-08-08T12:38:48Z</time>
      </trkpt>
      <trkpt lat="44.69128" lon="6.626">
        <ele>1061</ele>
        <time>2011-08-08T12:38:52Z</time>
      </trkpt>
      <trkpt lat="44.69102" lon="6.62617">
        <ele>1061</ele>
        <time>2011-08-08T12:38:59Z</time>
      </trkpt>
      <trkpt lat="44.69087" lon="6.62628">
        <ele>1061</ele>
        <time>2011-08-08T12:39:03Z</time>
      </trkpt>
      <trkpt lat="44.6907" lon="6.62645">
        <ele>1062</ele>
        <time>2011-08-08T12:39:07Z</time>
      </trkpt>
      <trkpt lat="44.69057" lon="6.6266">
        <ele>1062</ele>
        <time>2011-08-08T12:39:11Z</time>
      </trkpt>
      <trkpt lat="44.6904" lon="6.62675">
        <ele>1061</ele>
        <time>2011-08-08T12:39:15Z</time>
      </trkpt>
      <trkpt lat="44.6902" lon="6.6268">
        <ele>1058</ele>
        <time>2011-08-08T12:39:20Z</time>
      </trkpt>
      <trkpt lat="44.69" lon="6.62675">
        <ele>1053</ele>
        <time>2011-08-08T12:39:24Z</time>
      </trkpt>
      <trkpt lat="44.68978" lon="6.62672">
        <ele>1047</ele>
        <time>2011-08-08T12:39:28Z</time>
      </trkpt>
      <trkpt lat="44.68985" lon="6.62652">
        <ele>1047</ele>
        <time>2011-08-08T12:39:35Z</time>
      </trkpt>
      <trkpt lat="44.68997" lon="6.62638">
        <ele>1048</ele>
        <time>2011-08-08T12:39:43Z</time>
      </trkpt>
      <trkpt lat="44.69015" lon="6.62633">
        <ele>1051</ele>
        <time>2011-08-08T12:39:47Z</time>
      </trkpt>
      <trkpt lat="44.69042" lon="6.6262">
        <ele>1053</ele>
        <time>2011-08-08T12:39:51Z</time>
      </trkpt>
      <trkpt lat="44.6905" lon="6.62605">
        <ele>1052</ele>
        <time>2011-08-08T12:39:53Z</time>
      </trkpt>
      <trkpt lat="44.69072" lon="6.6257">
        <ele>1047</ele>
        <time>2011-08-08T12:39:57Z</time>
      </trkpt>
      <trkpt lat="44.69085" lon="6.62553">
        <ele>1045</ele>
        <time>2011-08-08T12:39:59Z</time>
      </trkpt>
      <trkpt lat="44.69112" lon="6.62525">
        <ele>1041</ele>
        <time>2011-08-08T12:40:03Z</time>
      </trkpt>
      <trkpt lat="44.69125" lon="6.62515">
        <ele>1040</ele>
        <time>2011-08-08T12:40:05Z</time>
      </trkpt>
      <trkpt lat="44.69138" lon="6.6251">
        <ele>1040</ele>
        <time>2011-08-08T12:40:08Z</time>
      </trkpt>
      <trkpt lat="44.69152" lon="6.62505">
        <ele>1039</ele>
        <time>2011-08-08T12:40:10Z</time>
      </trkpt>
      <trkpt lat="44.69165" lon="6.62498">
        <ele>1037</ele>
        <time>2011-08-08T12:40:12Z</time>
      </trkpt>
      <trkpt lat="44.69192" lon="6.62485">
        <ele>1034</ele>
        <time>2011-08-08T12:40:16Z</time>
      </trkpt>
      <trkpt lat="44.69212" lon="6.62475">
        <ele>1032</ele>
        <time>2011-08-08T12:40:20Z</time>
      </trkpt>
      <trkpt lat="44.69187" lon="6.62463">
        <ele>1029</ele>
        <time>2011-08-08T12:40:24Z</time>
      </trkpt>
      <trkpt lat="44.69172" lon="6.62462">
        <ele>1029</ele>
        <time>2011-08-08T12:40:26Z</time>
      </trkpt>
      <trkpt lat="44.69138" lon="6.62457">
        <ele>1027</ele>
        <time>2011-08-08T12:40:31Z</time>
      </trkpt>
      <trkpt lat="44.69123" lon="6.62447">
        <ele>1023</ele>
        <time>2011-08-08T12:40:33Z</time>
      </trkpt>
      <trkpt lat="44.69093" lon="6.62425">
        <ele>1016</ele>
        <time>2011-08-08T12:40:37Z</time>
      </trkpt>
      <trkpt lat="44.69073" lon="6.62422">
        <ele>1014</ele>
        <time>2011-08-08T12:40:39Z</time>
      </trkpt>
      <trkpt lat="44.69055" lon="6.6242">
        <ele>1012</ele>
        <time>2011-08-08T12:40:41Z</time>
      </trkpt>
      <trkpt lat="44.69028" lon="6.62422">
        <ele>1010</ele>
        <time>2011-08-08T12:40:43Z</time>
      </trkpt>
      <trkpt lat="44.69017" lon="6.62433">
        <ele>1011</ele>
        <time>2011-08-08T12:40:45Z</time>
      </trkpt>
      <trkpt lat="44.68993" lon="6.62452">
        <ele>1012</ele>
        <time>2011-08-08T12:40:50Z</time>
      </trkpt>
      <trkpt lat="44.6898" lon="6.62442">
        <ele>1008</ele>
        <time>2011-08-08T12:40:52Z</time>
      </trkpt>
      <trkpt lat="44.68965" lon="6.6243">
        <ele>1005</ele>
        <time>2011-08-08T12:40:54Z</time>
      </trkpt>
      <trkpt lat="44.68952" lon="6.62425">
        <ele>1003</ele>
        <time>2011-08-08T12:40:56Z</time>
      </trkpt>
      <trkpt lat="44.6893" lon="6.62418">
        <ele>1001</ele>
        <time>2011-08-08T12:41:00Z</time>
      </trkpt>
      <trkpt lat="44.68942" lon="6.62403">
        <ele>1000</ele>
        <time>2011-08-08T12:41:02Z</time>
      </trkpt>
      <trkpt lat="44.6897" lon="6.62408">
        <ele>1001</ele>
        <time>2011-08-08T12:41:06Z</time>
      </trkpt>
      <trkpt lat="44.68985" lon="6.62407">
        <ele>1003</ele>
        <time>2011-08-08T12:41:08Z</time>
      </trkpt>
      <trkpt lat="44.69002" lon="6.62377">
        <ele>1000</ele>
        <time>2011-08-08T12:41:12Z</time>
      </trkpt>
      <trkpt lat="44.6901" lon="6.62362">
        <ele>999</ele>
        <time>2011-08-08T12:41:14Z</time>
      </trkpt>
      <trkpt lat="44.69033" lon="6.6235">
        <ele>998</ele>
        <time>2011-08-08T12:41:19Z</time>
      </trkpt>
      <trkpt lat="44.69045" lon="6.62338">
        <ele>997</ele>
        <time>2011-08-08T12:42:55Z</time>
      </trkpt>
      <trkpt lat="44.69032" lon="6.62347">
        <ele>997</ele>
        <time>2011-08-08T12:43:04Z</time>
      </trkpt>
      <trkpt lat="44.69017" lon="6.62353">
        <ele>998</ele>
        <time>2011-08-08T12:43:10Z</time>
      </trkpt>
      <trkpt lat="44.69003" lon="6.62372">
        <ele>1000</ele>
        <time>2011-08-08T12:43:16Z</time>
      </trkpt>
      <trkpt lat="44.68995" lon="6.62393">
        <ele>1002</ele>
        <time>2011-08-08T12:43:22Z</time>
      </trkpt>
      <trkpt lat="44.68983" lon="6.62408">
        <ele>1003</ele>
        <time>2011-08-08T12:43:29Z</time>
      </trkpt>
      <trkpt lat="44.68965" lon="6.62408">
        <ele>1001</ele>
        <time>2011-08-08T12:43:35Z</time>
      </trkpt>
      <trkpt lat="44.68942" lon="6.62403">
        <ele>1000</ele>
        <time>2011-08-08T12:43:43Z</time>
      </trkpt>
      <trkpt lat="44.68932" lon="6.62417">
        <ele>1001</ele>
        <time>2011-08-08T12:43:50Z</time>
      </trkpt>
      <trkpt lat="44.68923" lon="6.62433">
        <ele>1001</ele>
        <time>2011-08-08T12:44:25Z</time>
      </trkpt>
      <trkpt lat="44.68918" lon="6.62452">
        <ele>1002</ele>
        <time>2011-08-08T12:44:29Z</time>
      </trkpt>
      <trkpt lat="44.68908" lon="6.62495">
        <ele>1003</ele>
        <time>2011-08-08T12:44:36Z</time>
      </trkpt>
      <trkpt lat="44.689" lon="6.62515">
        <ele>1003</ele>
        <time>2011-08-08T12:44:40Z</time>
      </trkpt>
      <trkpt lat="44.68895" lon="6.62538">
        <ele>1003</ele>
        <time>2011-08-08T12:45:37Z</time>
      </trkpt>
      <trkpt lat="44.68882" lon="6.62593">
        <ele>1008</ele>
        <time>2011-08-08T12:45:55Z</time>
      </trkpt>
      <trkpt lat="44.6888" lon="6.62615">
        <ele>1011</ele>
        <time>2011-08-08T12:46:04Z</time>
      </trkpt>
      <trkpt lat="44.68875" lon="6.62635">
        <ele>1012</ele>
        <time>2011-08-08T12:46:17Z</time>
      </trkpt>
      <trkpt lat="44.6887" lon="6.62655">
        <ele>1014</ele>
        <time>2011-08-08T12:46:27Z</time>
      </trkpt>
      <trkpt lat="44.68872" lon="6.62677">
        <ele>1016</ele>
        <time>2011-08-08T12:46:37Z</time>
      </trkpt>
      <trkpt lat="44.68875" lon="6.62713">
        <ele>1022</ele>
        <time>2011-08-08T12:46:54Z</time>
      </trkpt>
      <trkpt lat="44.68862" lon="6.62725">
        <ele>1022</ele>
        <time>2011-08-08T12:47:04Z</time>
      </trkpt>
      <trkpt lat="44.68853" lon="6.6271">
        <ele>1022</ele>
        <time>2011-08-08T12:47:15Z</time>
      </trkpt>
      <trkpt lat="44.68845" lon="6.6269">
        <ele>1022</ele>
        <time>2011-08-08T12:47:23Z</time>
      </trkpt>
      <trkpt lat="44.68835" lon="6.62667">
        <ele>1022</ele>
        <time>2011-08-08T12:47:31Z</time>
      </trkpt>
      <trkpt lat="44.68827" lon="6.62647">
        <ele>1022</ele>
        <time>2011-08-08T12:47:40Z</time>
      </trkpt>
      <trkpt lat="44.68818" lon="6.6262">
        <ele>1021</ele>
        <time>2011-08-08T12:47:52Z</time>
      </trkpt>
      <trkpt lat="44.68812" lon="6.62603">
        <ele>1021</ele>
        <time>2011-08-08T12:48:00Z</time>
      </trkpt>
      <trkpt lat="44.68803" lon="6.62582">
        <ele>1021</ele>
        <time>2011-08-08T12:48:13Z</time>
      </trkpt>
      <trkpt lat="44.68798" lon="6.62558">
        <ele>1017</ele>
        <time>2011-08-08T12:48:23Z</time>
      </trkpt>
      <trkpt lat="44.68788" lon="6.62545">
        <ele>1018</ele>
        <time>2011-08-08T12:48:31Z</time>
      </trkpt>
      <trkpt lat="44.68777" lon="6.62528">
        <ele>1016</ele>
        <time>2011-08-08T12:48:38Z</time>
      </trkpt>
      <trkpt lat="44.68762" lon="6.62525">
        <ele>1018</ele>
        <time>2011-08-08T12:48:44Z</time>
      </trkpt>
      <trkpt lat="44.68742" lon="6.62518">
        <ele>1021</ele>
        <time>2011-08-08T12:48:53Z</time>
      </trkpt>
      <trkpt lat="44.68728" lon="6.62512">
        <ele>1021</ele>
        <time>2011-08-08T12:48:59Z</time>
      </trkpt>
      <trkpt lat="44.6871" lon="6.62513">
        <ele>1022</ele>
        <time>2011-08-08T12:49:08Z</time>
      </trkpt>
      <trkpt lat="44.68692" lon="6.62515">
        <ele>1023</ele>
        <time>2011-08-08T12:49:14Z</time>
      </trkpt>
      <trkpt lat="44.68675" lon="6.62513">
        <ele>1023</ele>
        <time>2011-08-08T12:49:18Z</time>
      </trkpt>
      <trkpt lat="44.68652" lon="6.6251">
        <ele>1023</ele>
        <time>2011-08-08T12:49:26Z</time>
      </trkpt>
      <trkpt lat="44.68635" lon="6.62508">
        <ele>1022</ele>
        <time>2011-08-08T12:49:32Z</time>
      </trkpt>
      <trkpt lat="44.68617" lon="6.6251">
        <ele>1021</ele>
        <time>2011-08-08T12:49:38Z</time>
      </trkpt>
      <trkpt lat="44.686" lon="6.62517">
        <ele>1021</ele>
        <time>2011-08-08T12:49:44Z</time>
      </trkpt>
      <trkpt lat="44.68582" lon="6.62527">
        <ele>1022</ele>
        <time>2011-08-08T12:49:52Z</time>
      </trkpt>
      <trkpt lat="44.68565" lon="6.62537">
        <ele>1022</ele>
        <time>2011-08-08T12:49:58Z</time>
      </trkpt>
      <trkpt lat="44.6855" lon="6.62552">
        <ele>1023</ele>
        <time>2011-08-08T12:50:21Z</time>
      </trkpt>
      <trkpt lat="44.68525" lon="6.62555">
        <ele>1022</ele>
        <time>2011-08-08T12:50:29Z</time>
      </trkpt>
      <trkpt lat="44.68512" lon="6.6256">
        <ele>1021</ele>
        <time>2011-08-08T12:50:32Z</time>
      </trkpt>
      <trkpt lat="44.68487" lon="6.62575">
        <ele>1020</ele>
        <time>2011-08-08T12:50:36Z</time>
      </trkpt>
      <trkpt lat="44.6847" lon="6.62588">
        <ele>1019</ele>
        <time>2011-08-08T12:50:42Z</time>
      </trkpt>
      <trkpt lat="44.68452" lon="6.62592">
        <ele>1018</ele>
        <time>2011-08-08T12:51:13Z</time>
      </trkpt>
      <trkpt lat="44.68423" lon="6.62597">
        <ele>1016</ele>
        <time>2011-08-08T12:51:19Z</time>
      </trkpt>
      <trkpt lat="44.68403" lon="6.62602">
        <ele>1015</ele>
        <time>2011-08-08T12:51:23Z</time>
      </trkpt>
      <trkpt lat="44.68372" lon="6.6261">
        <ele>1014</ele>
        <time>2011-08-08T12:51:29Z</time>
      </trkpt>
      <trkpt lat="44.68358" lon="6.62617">
        <ele>1013</ele>
        <time>2011-08-08T12:51:31Z</time>
      </trkpt>
      <trkpt lat="44.68345" lon="6.62632">
        <ele>1012</ele>
        <time>2011-08-08T12:51:35Z</time>
      </trkpt>
      <trkpt lat="44.68332" lon="6.6265">
        <ele>1011</ele>
        <time>2011-08-08T12:51:39Z</time>
      </trkpt>
      <trkpt lat="44.68317" lon="6.62672">
        <ele>1008</ele>
        <time>2011-08-08T12:51:44Z</time>
      </trkpt>
      <trkpt lat="44.68312" lon="6.62708">
        <ele>1006</ele>
        <time>2011-08-08T12:51:48Z</time>
      </trkpt>
      <trkpt lat="44.68298" lon="6.62808">
        <ele>1004</ele>
        <time>2011-08-08T12:51:56Z</time>
      </trkpt>
      <trkpt lat="44.68292" lon="6.62832">
        <ele>1004</ele>
        <time>2011-08-08T12:51:58Z</time>
      </trkpt>
      <trkpt lat="44.68283" lon="6.62852">
        <ele>1004</ele>
        <time>2011-08-08T12:52:00Z</time>
      </trkpt>
      <trkpt lat="44.68253" lon="6.6291">
        <ele>1002</ele>
        <time>2011-08-08T12:52:07Z</time>
      </trkpt>
      <trkpt lat="44.68238" lon="6.62928">
        <ele>999</ele>
        <time>2011-08-08T12:52:09Z</time>
      </trkpt>
      <trkpt lat="44.68222" lon="6.62937">
        <ele>998</ele>
        <time>2011-08-08T12:52:11Z</time>
      </trkpt>
      <trkpt lat="44.68207" lon="6.62928">
        <ele>998</ele>
        <time>2011-08-08T12:52:13Z</time>
      </trkpt>
      <trkpt lat="44.682" lon="6.62908">
        <ele>998</ele>
        <time>2011-08-08T12:52:15Z</time>
      </trkpt>
      <trkpt lat="44.68203" lon="6.62882">
        <ele>996</ele>
        <time>2011-08-08T12:52:17Z</time>
      </trkpt>
      <trkpt lat="44.68218" lon="6.62843">
        <ele>993</ele>
        <time>2011-08-08T12:52:19Z</time>
      </trkpt>
      <trkpt lat="44.6823" lon="6.62818">
        <ele>991</ele>
        <time>2011-08-08T12:52:21Z</time>
      </trkpt>
      <trkpt lat="44.6824" lon="6.62795">
        <ele>991</ele>
        <time>2011-08-08T12:52:23Z</time>
      </trkpt>
      <trkpt lat="44.68242" lon="6.62768">
        <ele>992</ele>
        <time>2011-08-08T12:52:25Z</time>
      </trkpt>
      <trkpt lat="44.68237" lon="6.62742">
        <ele>993</ele>
        <time>2011-08-08T12:52:27Z</time>
      </trkpt>
      <trkpt lat="44.68235" lon="6.62718">
        <ele>993</ele>
        <time>2011-08-08T12:52:29Z</time>
      </trkpt>
      <trkpt lat="44.68235" lon="6.62695">
        <ele>992</ele>
        <time>2011-08-08T12:52:31Z</time>
      </trkpt>
      <trkpt lat="44.68232" lon="6.6267">
        <ele>990</ele>
        <time>2011-08-08T12:52:33Z</time>
      </trkpt>
      <trkpt lat="44.68225" lon="6.62647">
        <ele>986</ele>
        <time>2011-08-08T12:52:35Z</time>
      </trkpt>
      <trkpt lat="44.6821" lon="6.62627">
        <ele>980</ele>
        <time>2011-08-08T12:52:37Z</time>
      </trkpt>
      <trkpt lat="44.68162" lon="6.62572">
        <ele>958</ele>
        <time>2011-08-08T12:52:44Z</time>
      </trkpt>
      <trkpt lat="44.68148" lon="6.62558">
        <ele>954</ele>
        <time>2011-08-08T12:52:46Z</time>
      </trkpt>
      <trkpt lat="44.6813" lon="6.6255">
        <ele>951</ele>
        <time>2011-08-08T12:52:50Z</time>
      </trkpt>
      <trkpt lat="44.6812" lon="6.62533">
        <ele>948</ele>
        <time>2011-08-08T12:52:54Z</time>
      </trkpt>
      <trkpt lat="44.68107" lon="6.62507">
        <ele>946</ele>
        <time>2011-08-08T12:52:58Z</time>
      </trkpt>
      <trkpt lat="44.68095" lon="6.62482">
        <ele>945</ele>
        <time>2011-08-08T12:53:02Z</time>
      </trkpt>
      <trkpt lat="44.68077" lon="6.62442">
        <ele>942</ele>
        <time>2011-08-08T12:53:08Z</time>
      </trkpt>
      <trkpt lat="44.6807" lon="6.62423">
        <ele>942</ele>
        <time>2011-08-08T12:53:10Z</time>
      </trkpt>
      <trkpt lat="44.68063" lon="6.62405">
        <ele>941</ele>
        <time>2011-08-08T12:53:12Z</time>
      </trkpt>
      <trkpt lat="44.68052" lon="6.62385">
        <ele>939</ele>
        <time>2011-08-08T12:53:15Z</time>
      </trkpt>
      <trkpt lat="44.68028" lon="6.6235">
        <ele>935</ele>
        <time>2011-08-08T12:53:19Z</time>
      </trkpt>
      <trkpt lat="44.6801" lon="6.62337">
        <ele>933</ele>
        <time>2011-08-08T12:53:21Z</time>
      </trkpt>
      <trkpt lat="44.67968" lon="6.62298">
        <ele>928</ele>
        <time>2011-08-08T12:53:25Z</time>
      </trkpt>
      <trkpt lat="44.67958" lon="6.62283">
        <ele>927</ele>
        <time>2011-08-08T12:53:29Z</time>
      </trkpt>
      <trkpt lat="44.67952" lon="6.6226">
        <ele>926</ele>
        <time>2011-08-08T12:53:31Z</time>
      </trkpt>
      <trkpt lat="44.6795" lon="6.62223">
        <ele>924</ele>
        <time>2011-08-08T12:53:35Z</time>
      </trkpt>
      <trkpt lat="44.6795" lon="6.62185">
        <ele>922</ele>
        <time>2011-08-08T12:53:39Z</time>
      </trkpt>
      <trkpt lat="44.67943" lon="6.62153">
        <ele>920</ele>
        <time>2011-08-08T12:53:43Z</time>
      </trkpt>
      <trkpt lat="44.67925" lon="6.62152">
        <ele>919</ele>
        <time>2011-08-08T12:53:47Z</time>
      </trkpt>
      <trkpt lat="44.6791" lon="6.62155">
        <ele>918</ele>
        <time>2011-08-08T12:53:51Z</time>
      </trkpt>
      <trkpt lat="44.67893" lon="6.62163">
        <ele>917</ele>
        <time>2011-08-08T12:53:55Z</time>
      </trkpt>
      <trkpt lat="44.67872" lon="6.62177">
        <ele>916</ele>
        <time>2011-08-08T12:54:00Z</time>
      </trkpt>
      <trkpt lat="44.6786" lon="6.62187">
        <ele>915</ele>
        <time>2011-08-08T12:54:02Z</time>
      </trkpt>
      <trkpt lat="44.67845" lon="6.62195">
        <ele>914</ele>
        <time>2011-08-08T12:54:04Z</time>
      </trkpt>
      <trkpt lat="44.67782" lon="6.62233">
        <ele>911</ele>
        <time>2011-08-08T12:54:14Z</time>
      </trkpt>
      <trkpt lat="44.67763" lon="6.62252">
        <ele>911</ele>
        <time>2011-08-08T12:54:18Z</time>
      </trkpt>
      <trkpt lat="44.67753" lon="6.62233">
        <ele>909</ele>
        <time>2011-08-08T12:54:28Z</time>
      </trkpt>
      <trkpt lat="44.67757" lon="6.62207">
        <ele>908</ele>
        <time>2011-08-08T12:54:33Z</time>
      </trkpt>
      <trkpt lat="44.67763" lon="6.6216">
        <ele>907</ele>
        <time>2011-08-08T12:54:39Z</time>
      </trkpt>
      <trkpt lat="44.67767" lon="6.62127">
        <ele>906</ele>
        <time>2011-08-08T12:54:43Z</time>
      </trkpt>
      <trkpt lat="44.6778" lon="6.62">
        <ele>901</ele>
        <time>2011-08-08T12:54:55Z</time>
      </trkpt>
      <trkpt lat="44.6778" lon="6.6198">
        <ele>900</ele>
        <time>2011-08-08T12:54:58Z</time>
      </trkpt>
      <trkpt lat="44.67775" lon="6.6196">
        <ele>899</ele>
        <time>2011-08-08T12:55:00Z</time>
      </trkpt>
      <trkpt lat="44.67768" lon="6.6194">
        <ele>898</ele>
        <time>2011-08-08T12:55:02Z</time>
      </trkpt>
      <trkpt lat="44.6776" lon="6.61918">
        <ele>898</ele>
        <time>2011-08-08T12:55:04Z</time>
      </trkpt>
      <trkpt lat="44.6775" lon="6.61898">
        <ele>898</ele>
        <time>2011-08-08T12:55:06Z</time>
      </trkpt>
      <trkpt lat="44.67703" lon="6.61808">
        <ele>898</ele>
        <time>2011-08-08T12:55:14Z</time>
      </trkpt>
      <trkpt lat="44.67695" lon="6.61787">
        <ele>898</ele>
        <time>2011-08-08T12:55:16Z</time>
      </trkpt>
      <trkpt lat="44.67688" lon="6.61767">
        <ele>898</ele>
        <time>2011-08-08T12:55:18Z</time>
      </trkpt>
      <trkpt lat="44.67683" lon="6.61745">
        <ele>898</ele>
        <time>2011-08-08T12:55:20Z</time>
      </trkpt>
      <trkpt lat="44.67673" lon="6.61708">
        <ele>897</ele>
        <time>2011-08-08T12:55:25Z</time>
      </trkpt>
      <trkpt lat="44.67667" lon="6.61678">
        <ele>897</ele>
        <time>2011-08-08T12:55:29Z</time>
      </trkpt>
      <trkpt lat="44.67657" lon="6.61655">
        <ele>897</ele>
        <time>2011-08-08T12:55:37Z</time>
      </trkpt>
      <trkpt lat="44.67638" lon="6.61658">
        <ele>897</ele>
        <time>2011-08-08T12:55:41Z</time>
      </trkpt>
      <trkpt lat="44.67597" lon="6.61667">
        <ele>897</ele>
        <time>2011-08-08T12:55:47Z</time>
      </trkpt>
      <trkpt lat="44.67583" lon="6.6167">
        <ele>896</ele>
        <time>2011-08-08T12:55:49Z</time>
      </trkpt>
      <trkpt lat="44.6756" lon="6.61682">
        <ele>896</ele>
        <time>2011-08-08T12:55:53Z</time>
      </trkpt>
      <trkpt lat="44.67547" lon="6.61688">
        <ele>896</ele>
        <time>2011-08-08T12:55:55Z</time>
      </trkpt>
      <trkpt lat="44.67533" lon="6.61693">
        <ele>896</ele>
        <time>2011-08-08T12:55:57Z</time>
      </trkpt>
      <trkpt lat="44.67488" lon="6.61707">
        <ele>896</ele>
        <time>2011-08-08T12:56:04Z</time>
      </trkpt>
      <trkpt lat="44.67227" lon="6.61782">
        <ele>896</ele>
        <time>2011-08-08T12:56:43Z</time>
      </trkpt>
      <trkpt lat="44.67175" lon="6.61798">
        <ele>896</ele>
        <time>2011-08-08T12:56:51Z</time>
      </trkpt>
      <trkpt lat="44.67153" lon="6.61808">
        <ele>897</ele>
        <time>2011-08-08T12:56:55Z</time>
      </trkpt>
      <trkpt lat="44.67133" lon="6.61817">
        <ele>897</ele>
        <time>2011-08-08T12:56:59Z</time>
      </trkpt>
      <trkpt lat="44.67112" lon="6.6182">
        <ele>897</ele>
        <time>2011-08-08T12:57:03Z</time>
      </trkpt>
      <trkpt lat="44.6708" lon="6.61825">
        <ele>897</ele>
        <time>2011-08-08T12:57:10Z</time>
      </trkpt>
      <trkpt lat="44.6706" lon="6.6183">
        <ele>898</ele>
        <time>2011-08-08T12:57:14Z</time>
      </trkpt>
      <trkpt lat="44.66993" lon="6.61845">
        <ele>898</ele>
        <time>2011-08-08T12:57:26Z</time>
      </trkpt>
      <trkpt lat="44.66975" lon="6.61845">
        <ele>898</ele>
        <time>2011-08-08T12:57:30Z</time>
      </trkpt>
      <trkpt lat="44.66943" lon="6.61845">
        <ele>898</ele>
        <time>2011-08-08T12:57:37Z</time>
      </trkpt>
      <trkpt lat="44.66925" lon="6.61842">
        <ele>898</ele>
        <time>2011-08-08T12:57:43Z</time>
      </trkpt>
      <trkpt lat="44.66907" lon="6.61842">
        <ele>898</ele>
        <time>2011-08-08T12:57:52Z</time>
      </trkpt>
      <trkpt lat="44.66897" lon="6.61858">
        <ele>899</ele>
        <time>2011-08-08T12:57:56Z</time>
      </trkpt>
      <trkpt lat="44.66883" lon="6.61883">
        <ele>900</ele>
        <time>2011-08-08T12:58:02Z</time>
      </trkpt>
      <trkpt lat="44.66868" lon="6.61888">
        <ele>900</ele>
        <time>2011-08-08T12:58:06Z</time>
      </trkpt>
      <trkpt lat="44.6684" lon="6.61897">
        <ele>900</ele>
        <time>2011-08-08T12:58:13Z</time>
      </trkpt>
      <trkpt lat="44.66812" lon="6.61903">
        <ele>899</ele>
        <time>2011-08-08T12:58:19Z</time>
      </trkpt>
      <trkpt lat="44.66793" lon="6.6191">
        <ele>899</ele>
        <time>2011-08-08T12:58:23Z</time>
      </trkpt>
      <trkpt lat="44.6677" lon="6.61917">
        <ele>899</ele>
        <time>2011-08-08T12:58:27Z</time>
      </trkpt>
      <trkpt lat="44.6675" lon="6.6192">
        <ele>899</ele>
        <time>2011-08-08T12:58:31Z</time>
      </trkpt>
      <trkpt lat="44.66698" lon="6.6193">
        <ele>900</ele>
        <time>2011-08-08T12:58:42Z</time>
      </trkpt>
      <trkpt lat="44.66677" lon="6.61938">
        <ele>900</ele>
        <time>2011-08-08T12:58:46Z</time>
      </trkpt>
      <trkpt lat="44.6665" lon="6.61953">
        <ele>899</ele>
        <time>2011-08-08T12:58:50Z</time>
      </trkpt>
      <trkpt lat="44.66617" lon="6.61973">
        <ele>899</ele>
        <time>2011-08-08T12:58:56Z</time>
      </trkpt>
      <trkpt lat="44.66573" lon="6.62">
        <ele>899</ele>
        <time>2011-08-08T12:59:04Z</time>
      </trkpt>
      <trkpt lat="44.66553" lon="6.62018">
        <ele>898</ele>
        <time>2011-08-08T12:59:08Z</time>
      </trkpt>
      <trkpt lat="44.66537" lon="6.62038">
        <ele>897</ele>
        <time>2011-08-08T12:59:12Z</time>
      </trkpt>
      <trkpt lat="44.66505" lon="6.62075">
        <ele>894</ele>
        <time>2011-08-08T12:59:21Z</time>
      </trkpt>
      <trkpt lat="44.66488" lon="6.62097">
        <ele>893</ele>
        <time>2011-08-08T12:59:25Z</time>
      </trkpt>
      <trkpt lat="44.6647" lon="6.6212">
        <ele>893</ele>
        <time>2011-08-08T12:59:29Z</time>
      </trkpt>
      <trkpt lat="44.66458" lon="6.62147">
        <ele>891</ele>
        <time>2011-08-08T12:59:33Z</time>
      </trkpt>
      <trkpt lat="44.6645" lon="6.6217">
        <ele>892</ele>
        <time>2011-08-08T12:59:35Z</time>
      </trkpt>
      <trkpt lat="44.66405" lon="6.62285">
        <ele>898</ele>
        <time>2011-08-08T12:59:52Z</time>
      </trkpt>
      <trkpt lat="44.66397" lon="6.62308">
        <ele>901</ele>
        <time>2011-08-08T12:59:56Z</time>
      </trkpt>
      <trkpt lat="44.66382" lon="6.62348">
        <ele>903</ele>
        <time>2011-08-08T13:00:03Z</time>
      </trkpt>
      <trkpt lat="44.66375" lon="6.62377">
        <ele>904</ele>
        <time>2011-08-08T13:00:07Z</time>
      </trkpt>
      <trkpt lat="44.66375" lon="6.62415">
        <ele>906</ele>
        <time>2011-08-08T13:00:11Z</time>
      </trkpt>
      <trkpt lat="44.6639" lon="6.62455">
        <ele>909</ele>
        <time>2011-08-08T13:00:17Z</time>
      </trkpt>
      <trkpt lat="44.66407" lon="6.6248">
        <ele>913</ele>
        <time>2011-08-08T13:00:22Z</time>
      </trkpt>
      <trkpt lat="44.6642" lon="6.62503">
        <ele>916</ele>
        <time>2011-08-08T13:00:28Z</time>
      </trkpt>
      <trkpt lat="44.66415" lon="6.62522">
        <ele>906</ele>
        <time>2011-08-08T13:00:34Z</time>
      </trkpt>
      <trkpt lat="44.664" lon="6.62543">
        <ele>897</ele>
        <time>2011-08-08T13:00:36Z</time>
      </trkpt>
      <trkpt lat="44.6639" lon="6.62568">
        <ele>899</ele>
        <time>2011-08-08T13:00:40Z</time>
      </trkpt>
      <trkpt lat="44.66383" lon="6.62585">
        <ele>901</ele>
        <time>2011-08-08T13:00:47Z</time>
      </trkpt>
      <trkpt lat="44.6637" lon="6.6261">
        <ele>904</ele>
        <time>2011-08-08T13:00:53Z</time>
      </trkpt>
      <trkpt lat="44.66357" lon="6.62632">
        <ele>907</ele>
        <time>2011-08-08T13:00:57Z</time>
      </trkpt>
      <trkpt lat="44.66348" lon="6.62655">
        <ele>910</ele>
        <time>2011-08-08T13:01:03Z</time>
      </trkpt>
      <trkpt lat="44.66337" lon="6.6267">
        <ele>913</ele>
        <time>2011-08-08T13:01:10Z</time>
      </trkpt>
      <trkpt lat="44.66323" lon="6.62678">
        <ele>914</ele>
        <time>2011-08-08T13:01:14Z</time>
      </trkpt>
      <trkpt lat="44.66305" lon="6.62685">
        <ele>914</ele>
        <time>2011-08-08T13:01:18Z</time>
      </trkpt>
      <trkpt lat="44.6628" lon="6.62695">
        <ele>915</ele>
        <time>2011-08-08T13:01:25Z</time>
      </trkpt>
      <trkpt lat="44.66263" lon="6.62702">
        <ele>915</ele>
        <time>2011-08-08T13:01:29Z</time>
      </trkpt>
      <trkpt lat="44.6623" lon="6.62715">
        <ele>916</ele>
        <time>2011-08-08T13:01:37Z</time>
      </trkpt>
      <trkpt lat="44.66217" lon="6.62723">
        <ele>917</ele>
        <time>2011-08-08T13:01:41Z</time>
      </trkpt>
      <trkpt lat="44.66203" lon="6.62735">
        <ele>918</ele>
        <time>2011-08-08T13:01:46Z</time>
      </trkpt>
      <trkpt lat="44.66185" lon="6.62755">
        <ele>920</ele>
        <time>2011-08-08T13:01:52Z</time>
      </trkpt>
      <trkpt lat="44.66165" lon="6.62775">
        <ele>920</ele>
        <time>2011-08-08T13:01:58Z</time>
      </trkpt>
      <trkpt lat="44.66153" lon="6.62787">
        <ele>922</ele>
        <time>2011-08-08T13:02:02Z</time>
      </trkpt>
      <trkpt lat="44.66138" lon="6.62803">
        <ele>923</ele>
        <time>2011-08-08T13:02:09Z</time>
      </trkpt>
      <trkpt lat="44.66125" lon="6.62813">
        <ele>923</ele>
        <time>2011-08-08T13:02:13Z</time>
      </trkpt>
      <trkpt lat="44.66108" lon="6.62825">
        <ele>922</ele>
        <time>2011-08-08T13:02:17Z</time>
      </trkpt>
      <trkpt lat="44.6609" lon="6.62835">
        <ele>922</ele>
        <time>2011-08-08T13:02:23Z</time>
      </trkpt>
      <trkpt lat="44.66077" lon="6.62842">
        <ele>922</ele>
        <time>2011-08-08T13:02:27Z</time>
      </trkpt>
      <trkpt lat="44.66062" lon="6.6284">
        <ele>921</ele>
        <time>2011-08-08T13:02:34Z</time>
      </trkpt>
      <trkpt lat="44.66045" lon="6.62833">
        <ele>920</ele>
        <time>2011-08-08T13:02:40Z</time>
      </trkpt>
      <trkpt lat="44.6603" lon="6.62833">
        <ele>919</ele>
        <time>2011-08-08T13:02:44Z</time>
      </trkpt>
    </trkseg>
  </trk>
</gpx>